<?xml version="1.0" encoding="ISO-8859-1"?>
<gpx version="1.1" 
creator="Memory-Map 5.4.2.1089 http://www.memory-map.com"
 xmlns:xsi="http://www.w3.org/2001/XMLSchema-instance"
 xmlns="http://www.topografix.com/GPX/1/1"
 xsi:schemaLocation="http://www.topografix.com/GPX/1/1 http://www.topografix.com/GPX/1/1/gpx.xsd">
<trk>
<name><![CDATA[Moel Famau & Moel Arthur]]></name>
<type>Track</type>
<trkseg>
<trkpt lat="53.1775651614" lon="-3.2338003318"><time>2011-12-18T08:41:04Z</time></trkpt>
<trkpt lat="53.1774821599" lon="-3.2336158276"><ele>230</ele><time>2011-12-18T08:50:01Z</time></trkpt>
<trkpt lat="53.1774623394" lon="-3.2333786647"><ele>229</ele><time>2011-12-18T08:50:18Z</time></trkpt>
<trkpt lat="53.1774201711" lon="-3.2331501643"><ele>229</ele><time>2011-12-18T08:50:32Z</time></trkpt>
<trkpt lat="53.1773528258" lon="-3.2329338392"><ele>229</ele><time>2011-12-18T08:50:47Z</time></trkpt>
<trkpt lat="53.1773694992" lon="-3.2327108383"><ele>229</ele><time>2011-12-18T08:50:57Z</time></trkpt>
<trkpt lat="53.1773401737" lon="-3.2324793339"><ele>229</ele><time>2011-12-18T08:51:12Z</time></trkpt>
<trkpt lat="53.1772054990" lon="-3.2323974927"><ele>228</ele><time>2011-12-18T08:51:22Z</time></trkpt>
<trkpt lat="53.1770721594" lon="-3.2323418299"><ele>228</ele><time>2011-12-18T08:51:32Z</time></trkpt>
<trkpt lat="53.1769279957" lon="-3.2322981675"><ele>228</ele><time>2011-12-18T08:51:43Z</time></trkpt>
<trkpt lat="53.1767824968" lon="-3.2322743257"><ele>227</ele><time>2011-12-18T08:51:55Z</time></trkpt>
<trkpt lat="53.1766410033" lon="-3.2322331587"><ele>227</ele><time>2011-12-18T08:52:05Z</time></trkpt>
<trkpt lat="53.1765006701" lon="-3.2321984927"><ele>226</ele><time>2011-12-18T08:52:15Z</time></trkpt>
<trkpt lat="53.1763613383" lon="-3.2321471691"><ele>226</ele><time>2011-12-18T08:52:26Z</time></trkpt>
<trkpt lat="53.1762275060" lon="-3.2320740064"><ele>225</ele><time>2011-12-18T08:52:36Z</time></trkpt>
<trkpt lat="53.1760865053" lon="-3.2320219994"><ele>224</ele><time>2011-12-18T08:52:47Z</time></trkpt>
<trkpt lat="53.1759456635" lon="-3.2319791635"><ele>223</ele><time>2011-12-18T08:52:58Z</time></trkpt>
<trkpt lat="53.1758031686" lon="-3.2319171588"><ele>223</ele><time>2011-12-18T08:53:09Z</time></trkpt>
<trkpt lat="53.1756611665" lon="-3.2318466663"><ele>222</ele><time>2011-12-18T08:53:20Z</time></trkpt>
<trkpt lat="53.1755219936" lon="-3.2317890008"><ele>221</ele><time>2011-12-18T08:53:33Z</time></trkpt>
<trkpt lat="53.1753809929" lon="-3.2318108400"><ele>220</ele><time>2011-12-18T08:53:44Z</time></trkpt>
<trkpt lat="53.1752514998" lon="-3.2318871657"><ele>219</ele><time>2011-12-18T08:53:54Z</time></trkpt>
<trkpt lat="53.1751183351" lon="-3.2319684982"><ele>218</ele><time>2011-12-18T08:54:05Z</time></trkpt>
<trkpt lat="53.1749921640" lon="-3.2320633411"><ele>217</ele><time>2011-12-18T08:54:16Z</time></trkpt>
<trkpt lat="53.1748606682" lon="-3.2321321646"><ele>216</ele><time>2011-12-18T08:54:28Z</time></trkpt>
<trkpt lat="53.1747908274" lon="-3.2323261738"><ele>215</ele><time>2011-12-18T08:54:39Z</time></trkpt>
<trkpt lat="53.1746679942" lon="-3.2324443340"><ele>214</ele><time>2011-12-18T08:54:51Z</time></trkpt>
<trkpt lat="53.1745511691" lon="-3.2325935046"><ele>214</ele><time>2011-12-18T08:55:01Z</time></trkpt>
<trkpt lat="53.1744408290" lon="-3.2327475071"><ele>213</ele><time>2011-12-18T08:55:11Z</time></trkpt>
<trkpt lat="53.1743141651" lon="-3.2328599930"><ele>212</ele><time>2011-12-18T08:55:23Z</time></trkpt>
<trkpt lat="53.1742139975" lon="-3.2330436707"><ele>211</ele><time>2011-12-18T08:55:33Z</time></trkpt>
<trkpt lat="53.1741183281" lon="-3.2332923412"><ele>209</ele><time>2011-12-18T08:55:43Z</time></trkpt>
<trkpt lat="53.1740078290" lon="-3.2334318320"><ele>208</ele><time>2011-12-18T08:55:53Z</time></trkpt>
<trkpt lat="53.1738729954" lon="-3.2334508260"><ele>207</ele><time>2011-12-18T08:56:04Z</time></trkpt>
<trkpt lat="53.1737671693" lon="-3.2333091736"><ele>206</ele><time>2011-12-18T08:56:17Z</time></trkpt>
<trkpt lat="53.1736286640" lon="-3.2332923412"><ele>206</ele><time>2011-12-18T08:56:32Z</time></trkpt>
<trkpt lat="53.1734889984" lon="-3.2332948367"><ele>205</ele><time>2011-12-18T08:56:47Z</time></trkpt>
<trkpt lat="53.1734279950" lon="-3.2330938339"><ele>202</ele><time>2011-12-18T08:58:11Z</time></trkpt>
<trkpt lat="53.1733076731" lon="-3.2329644998"><ele>199</ele><time>2011-12-18T09:00:08Z</time></trkpt>
<trkpt lat="53.1731821696" lon="-3.2328448296"><ele>199</ele><time>2011-12-18T09:00:21Z</time></trkpt>
<trkpt lat="53.1730464935" lon="-3.2327634970"><ele>199</ele><time>2011-12-18T09:00:31Z</time></trkpt>
<trkpt lat="53.1729345004" lon="-3.2326381683"><ele>199</ele><time>2011-12-18T09:00:45Z</time></trkpt>
<trkpt lat="53.1728030046" lon="-3.2325538317"><ele>199</ele><time>2011-12-18T09:01:00Z</time></trkpt>
<trkpt lat="53.1726675034" lon="-3.2324983279"><ele>199</ele><time>2011-12-18T09:01:15Z</time></trkpt>
<trkpt lat="53.1725521723" lon="-3.2323671659"><ele>199</ele><time>2011-12-18T09:01:28Z</time></trkpt>
<trkpt lat="53.1724268277" lon="-3.2322476705"><ele>200</ele><time>2011-12-18T09:01:41Z</time></trkpt>
<trkpt lat="53.1722974936" lon="-3.2321689924"><ele>200</ele><time>2011-12-18T09:01:54Z</time></trkpt>
<trkpt lat="53.1721598307" lon="-3.2321229935"><ele>200</ele><time>2011-12-18T09:02:05Z</time></trkpt>
<trkpt lat="53.1720328331" lon="-3.2320208391"><ele>201</ele><time>2011-12-18T09:02:17Z</time></trkpt>
<trkpt lat="53.1719051679" lon="-3.2319249948"><ele>201</ele><time>2011-12-18T09:02:29Z</time></trkpt>
<trkpt lat="53.1717740059" lon="-3.2318714937"><ele>205</ele><time>2011-12-18T09:03:46Z</time></trkpt>
<trkpt lat="53.1716301600" lon="-3.2318824927"><ele>207</ele><time>2011-12-18T09:04:19Z</time></trkpt>
<trkpt lat="53.1714930058" lon="-3.2319356600"><ele>207</ele><time>2011-12-18T09:04:33Z</time></trkpt>
<trkpt lat="53.1713601589" lon="-3.2319880009"><ele>208</ele><time>2011-12-18T09:04:46Z</time></trkpt>
<trkpt lat="53.1712234974" lon="-3.2320333322"><ele>209</ele><time>2011-12-18T09:04:59Z</time></trkpt>
<trkpt lat="53.1710924943" lon="-3.2321083387"><ele>210</ele><time>2011-12-18T09:05:10Z</time></trkpt>
<trkpt lat="53.1709566593" lon="-3.2321241697"><ele>210</ele><time>2011-12-18T09:05:23Z</time></trkpt>
<trkpt lat="53.1708288352" lon="-3.2321973324"><ele>211</ele><time>2011-12-18T09:05:38Z</time></trkpt>
<trkpt lat="53.1706948280" lon="-3.2322433313"><ele>212</ele><time>2011-12-18T09:05:51Z</time></trkpt>
<trkpt lat="53.1705671628" lon="-3.2321414948"><ele>213</ele><time>2011-12-18T09:06:08Z</time></trkpt>
<trkpt lat="53.1704486688" lon="-3.2322501659"><ele>216</ele><time>2011-12-18T09:06:35Z</time></trkpt>
<trkpt lat="53.1705068270" lon="-3.2320343335"><ele>219</ele><time>2011-12-18T09:07:30Z</time></trkpt>
<trkpt lat="53.1705746651" lon="-3.2318338394"><ele>220</ele><time>2011-12-18T09:07:41Z</time></trkpt>
<trkpt lat="53.1706693331" lon="-3.2316514969"><ele>220</ele><time>2011-12-18T09:07:52Z</time></trkpt>
<trkpt lat="53.1707735062" lon="-3.2315083345"><ele>220</ele><time>2011-12-18T09:08:02Z</time></trkpt>
<trkpt lat="53.1708590031" lon="-3.2313113372"><ele>220</ele><time>2011-12-18T09:08:13Z</time></trkpt>
<trkpt lat="53.1709086736" lon="-3.2310965061"><ele>220</ele><time>2011-12-18T09:08:25Z</time></trkpt>
<trkpt lat="53.1708611647" lon="-3.2308829943"><ele>221</ele><time>2011-12-18T09:08:53Z</time></trkpt>
<trkpt lat="53.1707563400" lon="-3.2307331721"><ele>222</ele><time>2011-12-18T09:09:06Z</time></trkpt>
<trkpt lat="53.1706366698" lon="-3.2306171735"><ele>222</ele><time>2011-12-18T09:09:18Z</time></trkpt>
<trkpt lat="53.1704994996" lon="-3.2305293401"><ele>222</ele><time>2011-12-18T09:09:29Z</time></trkpt>
<trkpt lat="53.1703619957" lon="-3.2304869970"><ele>222</ele><time>2011-12-18T09:09:41Z</time></trkpt>
<trkpt lat="53.1702313264" lon="-3.2304163297"><ele>222</ele><time>2011-12-18T09:09:52Z</time></trkpt>
<trkpt lat="53.1700963338" lon="-3.2303838412"><ele>222</ele><time>2011-12-18T09:10:04Z</time></trkpt>
<trkpt lat="53.1699769974" lon="-3.2302759965"><ele>222</ele><time>2011-12-18T09:10:32Z</time></trkpt>
<trkpt lat="53.1698448340" lon="-3.2301764965"><ele>222</ele><time>2011-12-18T09:10:46Z</time></trkpt>
<trkpt lat="53.1697230021" lon="-3.2300610065"><ele>222</ele><time>2011-12-18T09:10:57Z</time></trkpt>
<trkpt lat="53.1695883274" lon="-3.2299826622"><ele>223</ele><time>2011-12-18T09:11:08Z</time></trkpt>
<trkpt lat="53.1694515069" lon="-3.2299605052"><ele>223</ele><time>2011-12-18T09:11:20Z</time></trkpt>
<trkpt lat="53.1693168322" lon="-3.2299243291"><ele>223</ele><time>2011-12-18T09:11:33Z</time></trkpt>
<trkpt lat="53.1691720009" lon="-3.2298826694"><ele>223</ele><time>2011-12-18T09:11:44Z</time></trkpt>
<trkpt lat="53.1690278371" lon="-3.2298246702"><ele>224</ele><time>2011-12-18T09:11:56Z</time></trkpt>
<trkpt lat="53.1688953400" lon="-3.2297579924"><ele>224</ele><time>2011-12-18T09:12:08Z</time></trkpt>
<trkpt lat="53.1687918345" lon="-3.2296130021"><ele>226</ele><time>2011-12-18T09:13:32Z</time></trkpt>
<trkpt lat="53.1686678410" lon="-3.2295039972"><ele>226</ele><time>2011-12-18T09:13:44Z</time></trkpt>
<trkpt lat="53.1685551643" lon="-3.2293768406"><ele>226</ele><time>2011-12-18T09:13:56Z</time></trkpt>
<trkpt lat="53.1684396744" lon="-3.2292581717"><ele>225</ele><time>2011-12-18T09:14:06Z</time></trkpt>
<trkpt lat="53.1683084965" lon="-3.2291694959"><ele>225</ele><time>2011-12-18T09:14:19Z</time></trkpt>
<trkpt lat="53.1681703409" lon="-3.2291078409"><ele>226</ele><time>2011-12-18T09:14:31Z</time></trkpt>
<trkpt lat="53.1680339972" lon="-3.2290666739"><ele>226</ele><time>2011-12-18T09:14:43Z</time></trkpt>
<trkpt lat="53.1678916613" lon="-3.2290533384"><ele>226</ele><time>2011-12-18T09:14:57Z</time></trkpt>
<trkpt lat="53.1677545071" lon="-3.2290005048"><ele>227</ele><time>2011-12-18T09:15:24Z</time></trkpt>
<trkpt lat="53.1676498254" lon="-3.2288589954"><ele>227</ele><time>2011-12-18T09:15:45Z</time></trkpt>
<trkpt lat="53.1675351620" lon="-3.2287321726"><ele>228</ele><time>2011-12-18T09:16:02Z</time></trkpt>
<trkpt lat="53.1674033324" lon="-3.2286496639"><ele>228</ele><time>2011-12-18T09:16:18Z</time></trkpt>
<trkpt lat="53.1672761599" lon="-3.2285556634"><ele>229</ele><time>2011-12-18T09:16:32Z</time></trkpt>
<trkpt lat="53.1671480020" lon="-3.2284708341"><ele>229</ele><time>2011-12-18T09:16:47Z</time></trkpt>
<trkpt lat="53.1670204957" lon="-3.2283713341"><ele>230</ele><time>2011-12-18T09:17:02Z</time></trkpt>
<trkpt lat="53.1668910027" lon="-3.2282878399"><ele>231</ele><time>2011-12-18T09:17:42Z</time></trkpt>
<trkpt lat="53.1667601744" lon="-3.2282173316"><ele>234</ele><time>2011-12-18T09:18:12Z</time></trkpt>
<trkpt lat="53.1666309992" lon="-3.2281390031"><ele>235</ele><time>2011-12-18T09:18:26Z</time></trkpt>
<trkpt lat="53.1664986610" lon="-3.2280900002"><ele>235</ele><time>2011-12-18T09:18:41Z</time></trkpt>
<trkpt lat="53.1663638274" lon="-3.2280076663"><ele>237</ele><time>2011-12-18T09:19:00Z</time></trkpt>
<trkpt lat="53.1662303289" lon="-3.2279284954"><ele>238</ele><time>2011-12-18T09:19:20Z</time></trkpt>
<trkpt lat="53.1661008358" lon="-3.2278356711"><ele>240</ele><time>2011-12-18T09:19:37Z</time></trkpt>
<trkpt lat="53.1659723282" lon="-3.2277548313"><ele>240</ele><time>2011-12-18T09:19:50Z</time></trkpt>
<trkpt lat="53.1658333302" lon="-3.2277060032"><ele>241</ele><time>2011-12-18T09:20:06Z</time></trkpt>
<trkpt lat="53.1657000065" lon="-3.2276363373"><ele>243</ele><time>2011-12-18T09:20:22Z</time></trkpt>
<trkpt lat="53.1655580044" lon="-3.2276380062"><ele>244</ele><time>2011-12-18T09:20:36Z</time></trkpt>
<trkpt lat="53.1654156685" lon="-3.2276263396"><ele>246</ele><time>2011-12-18T09:20:53Z</time></trkpt>
<trkpt lat="53.1652805010" lon="-3.2276374976"><ele>249</ele><time>2011-12-18T09:21:16Z</time></trkpt>
<trkpt lat="53.1651453336" lon="-3.2276231607"><ele>257</ele><time>2011-12-18T09:22:39Z</time></trkpt>
<trkpt lat="53.1651010036" lon="-3.2274078369"><ele>270</ele><time>2011-12-18T09:24:25Z</time></trkpt>
<trkpt lat="53.1650423368" lon="-3.2271985054"><ele>270</ele><time>2011-12-18T09:24:43Z</time></trkpt>
<trkpt lat="53.1650171598" lon="-3.2269578298"><ele>271</ele><time>2011-12-18T09:24:55Z</time></trkpt>
<trkpt lat="53.1649536610" lon="-3.2267444928"><ele>271</ele><time>2011-12-18T09:25:09Z</time></trkpt>
<trkpt lat="53.1648843288" lon="-3.2265326659"><ele>271</ele><time>2011-12-18T09:25:22Z</time></trkpt>
<trkpt lat="53.1647659938" lon="-3.2264145056"><ele>271</ele><time>2011-12-18T09:25:36Z</time></trkpt>
<trkpt lat="53.1646383286" lon="-3.2263130029"><ele>271</ele><time>2011-12-18T09:25:49Z</time></trkpt>
<trkpt lat="53.1645115058" lon="-3.2262239933"><ele>271</ele><time>2011-12-18T09:26:02Z</time></trkpt>
<trkpt lat="53.1643791676" lon="-3.2261221727"><ele>271</ele><time>2011-12-18T09:26:13Z</time></trkpt>
<trkpt lat="53.1642673333" lon="-3.2259701729"><ele>272</ele><time>2011-12-18T09:26:24Z</time></trkpt>
<trkpt lat="53.1641595046" lon="-3.2258226713"><ele>272</ele><time>2011-12-18T09:26:37Z</time></trkpt>
<trkpt lat="53.1640483379" lon="-3.2256913344"><ele>273</ele><time>2011-12-18T09:26:50Z</time></trkpt>
<trkpt lat="53.1639316718" lon="-3.2255754948"><ele>274</ele><time>2011-12-18T09:27:03Z</time></trkpt>
<trkpt lat="53.1638248285" lon="-3.2254315058"><ele>274</ele><time>2011-12-18T09:27:18Z</time></trkpt>
<trkpt lat="53.1637016614" lon="-3.2252860069"><ele>274</ele><time>2011-12-18T09:27:31Z</time></trkpt>
<trkpt lat="53.1635833263" lon="-3.2251673381"><ele>275</ele><time>2011-12-18T09:27:44Z</time></trkpt>
<trkpt lat="53.1634583314" lon="-3.2250659943"><ele>275</ele><time>2011-12-18T09:27:54Z</time></trkpt>
<trkpt lat="53.1633308411" lon="-3.2249471664"><ele>275</ele><time>2011-12-18T09:28:05Z</time></trkpt>
<trkpt lat="53.1632168293" lon="-3.2247968356"><ele>275</ele><time>2011-12-18T09:28:16Z</time></trkpt>
<trkpt lat="53.1631021659" lon="-3.2246728261"><ele>276</ele><time>2011-12-18T09:28:28Z</time></trkpt>
<trkpt lat="53.1629795074" lon="-3.2245505015"><ele>277</ele><time>2011-12-18T09:28:39Z</time></trkpt>
<trkpt lat="53.1628558318" lon="-3.2244504929"><ele>277</ele><time>2011-12-18T09:28:53Z</time></trkpt>
<trkpt lat="53.1627413273" lon="-3.2243128300"><ele>277</ele><time>2011-12-18T09:29:07Z</time></trkpt>
<trkpt lat="53.1626304944" lon="-3.2241806666"><ele>278</ele><time>2011-12-18T09:29:21Z</time></trkpt>
<trkpt lat="53.1625608285" lon="-3.2239856720"><ele>278</ele><time>2011-12-18T09:29:34Z</time></trkpt>
<trkpt lat="53.1624596596" lon="-3.2238230069"><ele>279</ele><time>2011-12-18T09:29:47Z</time></trkpt>
<trkpt lat="53.1623583317" lon="-3.2236535072"><ele>279</ele><time>2011-12-18T09:30:00Z</time></trkpt>
<trkpt lat="53.1622643312" lon="-3.2234680017"><ele>279</ele><time>2011-12-18T09:30:15Z</time></trkpt>
<trkpt lat="53.1621829987" lon="-3.2232816696"><ele>278</ele><time>2011-12-18T09:30:29Z</time></trkpt>
<trkpt lat="53.1620824973" lon="-3.2231293360"><ele>278</ele><time>2011-12-18T09:30:39Z</time></trkpt>
<trkpt lat="53.1619913260" lon="-3.2229499976"><ele>278</ele><time>2011-12-18T09:30:50Z</time></trkpt>
<trkpt lat="53.1618958314" lon="-3.2227638404"><ele>278</ele><time>2011-12-18T09:31:00Z</time></trkpt>
<trkpt lat="53.1618111610" lon="-3.2225883325"><ele>277</ele><time>2011-12-18T09:31:10Z</time></trkpt>
<trkpt lat="53.1617300034" lon="-3.2224031607"><ele>276</ele><time>2011-12-18T09:31:32Z</time></trkpt>
<trkpt lat="53.1615921656" lon="-3.2223621686"><ele>276</ele><time>2011-12-18T09:31:46Z</time></trkpt>
<trkpt lat="53.1614493370" lon="-3.2223823388"><ele>275</ele><time>2011-12-18T09:31:59Z</time></trkpt>
<trkpt lat="53.1613118331" lon="-3.2224530061"><ele>275</ele><time>2011-12-18T09:32:14Z</time></trkpt>
<trkpt lat="53.1611678282" lon="-3.2224850019"><ele>275</ele><time>2011-12-18T09:32:26Z</time></trkpt>
<trkpt lat="53.1610283375" lon="-3.2224896590"><ele>274</ele><time>2011-12-18T09:32:40Z</time></trkpt>
<trkpt lat="53.1608853340" lon="-3.2225149949"><ele>274</ele><time>2011-12-18T09:32:53Z</time></trkpt>
<trkpt lat="53.1607451598" lon="-3.2225194931"><ele>274</ele><time>2011-12-18T09:33:08Z</time></trkpt>
<trkpt lat="53.1606116613" lon="-3.2226020018"><ele>274</ele><time>2011-12-18T09:33:18Z</time></trkpt>
<trkpt lat="53.1604796727" lon="-3.2226631641"><ele>274</ele><time>2011-12-18T09:33:28Z</time></trkpt>
<trkpt lat="53.1603491624" lon="-3.2227303346"><ele>275</ele><time>2011-12-18T09:33:39Z</time></trkpt>
<trkpt lat="53.1602129936" lon="-3.2228075027"><ele>275</ele><time>2011-12-18T09:33:51Z</time></trkpt>
<trkpt lat="53.1600803375" lon="-3.2228891691"><ele>275</ele><time>2011-12-18T09:34:04Z</time></trkpt>
<trkpt lat="53.1599593321" lon="-3.2229936600"><ele>276</ele><time>2011-12-18T09:34:18Z</time></trkpt>
<trkpt lat="53.1598288377" lon="-3.2230783304"><ele>280</ele><time>2011-12-18T09:34:45Z</time></trkpt>
<trkpt lat="53.1597235044" lon="-3.2232646624"><ele>282</ele><time>2011-12-18T09:35:08Z</time></trkpt>
<trkpt lat="53.1596203327" lon="-3.2234293302"><ele>282</ele><time>2011-12-18T09:35:21Z</time></trkpt>
<trkpt lat="53.1595213254" lon="-3.2236063321"><ele>283</ele><time>2011-12-18T09:35:32Z</time></trkpt>
<trkpt lat="53.1594195048" lon="-3.2237589995"><ele>283</ele><time>2011-12-18T09:35:43Z</time></trkpt>
<trkpt lat="53.1593324979" lon="-3.2239431699"><ele>283</ele><time>2011-12-18T09:35:55Z</time></trkpt>
<trkpt lat="53.1592345079" lon="-3.2241095066"><ele>284</ele><time>2011-12-18T09:36:07Z</time></trkpt>
<trkpt lat="53.1591288408" lon="-3.2242744923"><ele>284</ele><time>2011-12-18T09:36:19Z</time></trkpt>
<trkpt lat="53.1590338389" lon="-3.2244523366"><ele>284</ele><time>2011-12-18T09:36:35Z</time></trkpt>
<trkpt lat="53.1589409987" lon="-3.2246428331"><ele>284</ele><time>2011-12-18T09:36:47Z</time></trkpt>
<trkpt lat="53.1588501612" lon="-3.2248183409"><ele>284</ele><time>2011-12-18T09:36:57Z</time></trkpt>
<trkpt lat="53.1587526639" lon="-3.2250073274"><ele>285</ele><time>2011-12-18T09:37:07Z</time></trkpt>
<trkpt lat="53.1586485068" lon="-3.2251903375"><ele>285</ele><time>2011-12-18T09:37:17Z</time></trkpt>
<trkpt lat="53.1585631688" lon="-3.2253809929"><ele>286</ele><time>2011-12-18T09:37:29Z</time></trkpt>
<trkpt lat="53.1584551652" lon="-3.2255413373"><ele>287</ele><time>2011-12-18T09:37:42Z</time></trkpt>
<trkpt lat="53.1583690008" lon="-3.2257226626"><ele>287</ele><time>2011-12-18T09:37:54Z</time></trkpt>
<trkpt lat="53.1582833290" lon="-3.2259161631"><ele>287</ele><time>2011-12-18T09:38:04Z</time></trkpt>
<trkpt lat="53.1581931591" lon="-3.2260921637"><ele>288</ele><time>2011-12-18T09:38:16Z</time></trkpt>
<trkpt lat="53.1581154982" lon="-3.2262853305"><ele>288</ele><time>2011-12-18T09:38:28Z</time></trkpt>
<trkpt lat="53.1580358346" lon="-3.2264818350"><ele>288</ele><time>2011-12-18T09:38:38Z</time></trkpt>
<trkpt lat="53.1579503377" lon="-3.2266866684"><ele>289</ele><time>2011-12-18T09:38:48Z</time></trkpt>
<trkpt lat="53.1578701655" lon="-3.2268816630"><ele>289</ele><time>2011-12-18T09:39:00Z</time></trkpt>
<trkpt lat="53.1577983379" lon="-3.2270890077"><ele>290</ele><time>2011-12-18T09:39:11Z</time></trkpt>
<trkpt lat="53.1577390035" lon="-3.2273165067"><ele>291</ele><time>2011-12-18T09:39:24Z</time></trkpt>
<trkpt lat="53.1576873302" lon="-3.2275369962"><ele>291</ele><time>2011-12-18T09:39:35Z</time></trkpt>
<trkpt lat="53.1576554934" lon="-3.2277626673"><ele>292</ele><time>2011-12-18T09:39:48Z</time></trkpt>
<trkpt lat="53.1576145013" lon="-3.2279905001"><ele>293</ele><time>2011-12-18T09:40:02Z</time></trkpt>
<trkpt lat="53.1575833321" lon="-3.2282106717"><ele>294</ele><time>2011-12-18T09:40:16Z</time></trkpt>
<trkpt lat="53.1575630029" lon="-3.2284501712"><ele>295</ele><time>2011-12-18T09:40:30Z</time></trkpt>
<trkpt lat="53.1575423400" lon="-3.2286766688"><ele>296</ele><time>2011-12-18T09:40:44Z</time></trkpt>
<trkpt lat="53.1575520039" lon="-3.2289061705"><ele>298</ele><time>2011-12-18T09:41:01Z</time></trkpt>
<trkpt lat="53.1575741609" lon="-3.2291324933"><ele>298</ele><time>2011-12-18T09:41:16Z</time></trkpt>
<trkpt lat="53.1575864951" lon="-3.2293568293"><ele>299</ele><time>2011-12-18T09:41:30Z</time></trkpt>
<trkpt lat="53.1576016744" lon="-3.2295866648"><ele>299</ele><time>2011-12-18T09:41:44Z</time></trkpt>
<trkpt lat="53.1575896740" lon="-3.2298199972"><ele>300</ele><time>2011-12-18T09:42:00Z</time></trkpt>
<trkpt lat="53.1575823307" lon="-3.2300571601"><ele>300</ele><time>2011-12-18T09:42:15Z</time></trkpt>
<trkpt lat="53.1575871627" lon="-3.2303041617"><ele>301</ele><time>2011-12-18T09:42:27Z</time></trkpt>
<trkpt lat="53.1575703303" lon="-3.2305300077"><ele>302</ele><time>2011-12-18T09:42:37Z</time></trkpt>
<trkpt lat="53.1575860023" lon="-3.2307704926"><ele>302</ele><time>2011-12-18T09:42:49Z</time></trkpt>
<trkpt lat="53.1576090018" lon="-3.2309918404"><ele>303</ele><time>2011-12-18T09:43:32Z</time></trkpt>
<trkpt lat="53.1576403300" lon="-3.2312154929"><ele>303</ele><time>2011-12-18T09:43:53Z</time></trkpt>
<trkpt lat="53.1577205022" lon="-3.2314141591"><ele>303</ele><time>2011-12-18T09:44:08Z</time></trkpt>
<trkpt lat="53.1577484926" lon="-3.2316431681"><ele>303</ele><time>2011-12-18T09:44:23Z</time></trkpt>
<trkpt lat="53.1577946663" lon="-3.2318566640"><ele>303</ele><time>2011-12-18T09:44:36Z</time></trkpt>
<trkpt lat="53.1578578313" lon="-3.2320665042"><ele>303</ele><time>2011-12-18T09:44:51Z</time></trkpt>
<trkpt lat="53.1578966618" lon="-3.2322848320"><ele>303</ele><time>2011-12-18T09:45:03Z</time></trkpt>
<trkpt lat="53.1579024951" lon="-3.2325164954"><ele>303</ele><time>2011-12-18T09:45:21Z</time></trkpt>
<trkpt lat="53.1579103311" lon="-3.2327445030"><ele>304</ele><time>2011-12-18T09:45:34Z</time></trkpt>
<trkpt lat="53.1578945001" lon="-3.2329710007"><ele>304</ele><time>2011-12-18T09:45:48Z</time></trkpt>
<trkpt lat="53.1578885078" lon="-3.2332013289"><ele>303</ele><time>2011-12-18T09:46:02Z</time></trkpt>
<trkpt lat="53.1578736623" lon="-3.2334381739"><ele>302</ele><time>2011-12-18T09:46:15Z</time></trkpt>
<trkpt lat="53.1578721682" lon="-3.2336764971"><ele>302</ele><time>2011-12-18T09:46:28Z</time></trkpt>
<trkpt lat="53.1579020023" lon="-3.2338981628"><ele>302</ele><time>2011-12-18T09:46:42Z</time></trkpt>
<trkpt lat="53.1579510053" lon="-3.2341163317"><ele>302</ele><time>2011-12-18T09:46:58Z</time></trkpt>
<trkpt lat="53.1580653350" lon="-3.2342391650"><ele>301</ele><time>2011-12-18T09:47:49Z</time></trkpt>
<trkpt lat="53.1580045064" lon="-3.2344441732"><ele>302</ele><time>2011-12-18T09:48:49Z</time></trkpt>
<trkpt lat="53.1579248269" lon="-3.2346264998"><ele>303</ele><time>2011-12-18T09:49:04Z</time></trkpt>
<trkpt lat="53.1578286648" lon="-3.2347971598"><ele>304</ele><time>2011-12-18T09:49:21Z</time></trkpt>
<trkpt lat="53.1577195009" lon="-3.2349518299"><ele>304</ele><time>2011-12-18T09:49:35Z</time></trkpt>
<trkpt lat="53.1576078256" lon="-3.2351075013"><ele>305</ele><time>2011-12-18T09:49:50Z</time></trkpt>
<trkpt lat="53.1574875037" lon="-3.2352171739"><ele>305</ele><time>2011-12-18T09:50:03Z</time></trkpt>
<trkpt lat="53.1573811690" lon="-3.2353765011"><ele>305</ele><time>2011-12-18T09:50:18Z</time></trkpt>
<trkpt lat="53.1572740078" lon="-3.2355208397"><ele>305</ele><time>2011-12-18T09:50:31Z</time></trkpt>
<trkpt lat="53.1571661631" lon="-3.2356585026"><ele>305</ele><time>2011-12-18T09:50:44Z</time></trkpt>
<trkpt lat="53.1570529938" lon="-3.2357975006"><ele>305</ele><time>2011-12-18T09:50:57Z</time></trkpt>
<trkpt lat="53.1569431623" lon="-3.2359373411"><ele>305</ele><time>2011-12-18T09:51:08Z</time></trkpt>
<trkpt lat="53.1568398317" lon="-3.2360841592"><ele>306</ele><time>2011-12-18T09:51:49Z</time></trkpt>
<trkpt lat="53.1568163395" lon="-3.2363051732"><ele>307</ele><time>2011-12-18T09:53:09Z</time></trkpt>
<trkpt lat="53.1568323294" lon="-3.2365371704"><ele>308</ele><time>2011-12-18T09:53:33Z</time></trkpt>
<trkpt lat="53.1568131606" lon="-3.2367658297"><ele>310</ele><time>2011-12-18T09:54:04Z</time></trkpt>
<trkpt lat="53.1567574978" lon="-3.2369738261"><ele>312</ele><time>2011-12-18T09:54:44Z</time></trkpt>
<trkpt lat="53.1567936738" lon="-3.2372084936"><ele>315</ele><time>2011-12-18T09:55:20Z</time></trkpt>
<trkpt lat="53.1568208377" lon="-3.2374303341"><ele>322</ele><time>2011-12-18T09:55:52Z</time></trkpt>
<trkpt lat="53.1567918301" lon="-3.2376568317"><ele>329</ele><time>2011-12-18T09:56:21Z</time></trkpt>
<trkpt lat="53.1568004926" lon="-3.2378835042"><ele>336</ele><time>2011-12-18T09:56:47Z</time></trkpt>
<trkpt lat="53.1568106651" lon="-3.2381196658"><ele>339</ele><time>2011-12-18T09:57:05Z</time></trkpt>
<trkpt lat="53.1568061670" lon="-3.2383450031"><ele>342</ele><time>2011-12-18T09:57:28Z</time></trkpt>
<trkpt lat="53.1567881743" lon="-3.2385733287"><ele>347</ele><time>2011-12-18T09:57:55Z</time></trkpt>
<trkpt lat="53.1567470074" lon="-3.2387880007"><ele>351</ele><time>2011-12-18T09:58:16Z</time></trkpt>
<trkpt lat="53.1567430019" lon="-3.2390159925"><ele>355</ele><time>2011-12-18T09:58:37Z</time></trkpt>
<trkpt lat="53.1566918373" lon="-3.2392338276"><ele>358</ele><time>2011-12-18T09:58:54Z</time></trkpt>
<trkpt lat="53.1566616694" lon="-3.2394586722"><ele>361</ele><time>2011-12-18T09:59:09Z</time></trkpt>
<trkpt lat="53.1566044966" lon="-3.2396835009"><ele>363</ele><time>2011-12-18T09:59:25Z</time></trkpt>
<trkpt lat="53.1565796693" lon="-3.2399158319"><ele>366</ele><time>2011-12-18T09:59:42Z</time></trkpt>
<trkpt lat="53.1565275033" lon="-3.2401248296"><ele>368</ele><time>2011-12-18T09:59:58Z</time></trkpt>
<trkpt lat="53.1564903259" lon="-3.2403464953"><ele>370</ele><time>2011-12-18T10:00:19Z</time></trkpt>
<trkpt lat="53.1564643383" lon="-3.2405759970"><ele>372</ele><time>2011-12-18T10:00:32Z</time></trkpt>
<trkpt lat="53.1564258258" lon="-3.2407989979"><ele>375</ele><time>2011-12-18T10:00:47Z</time></trkpt>
<trkpt lat="53.1563895067" lon="-3.2410274982"><ele>377</ele><time>2011-12-18T10:01:04Z</time></trkpt>
<trkpt lat="53.1563648383" lon="-3.2412516594"><ele>380</ele><time>2011-12-18T10:01:21Z</time></trkpt>
<trkpt lat="53.1563283285" lon="-3.2414793332"><ele>382</ele><time>2011-12-18T10:01:38Z</time></trkpt>
<trkpt lat="53.1563090007" lon="-3.2417098363"><ele>384</ele><time>2011-12-18T10:01:54Z</time></trkpt>
<trkpt lat="53.1563481649" lon="-3.2419254939"><ele>388</ele><time>2011-12-18T10:02:13Z</time></trkpt>
<trkpt lat="53.1563389937" lon="-3.2421521664"><ele>400</ele><time>2011-12-18T10:05:33Z</time></trkpt>
<trkpt lat="53.1563253403" lon="-3.2423776627"><ele>401</ele><time>2011-12-18T10:05:55Z</time></trkpt>
<trkpt lat="53.1562819958" lon="-3.2425928275"><ele>402</ele><time>2011-12-18T10:06:14Z</time></trkpt>
<trkpt lat="53.1562473297" lon="-3.2428163369"><ele>403</ele><time>2011-12-18T10:06:38Z</time></trkpt>
<trkpt lat="53.1562076728" lon="-3.2430353324"><ele>405</ele><time>2011-12-18T10:06:56Z</time></trkpt>
<trkpt lat="53.1561486721" lon="-3.2432476679"><ele>407</ele><time>2011-12-18T10:07:16Z</time></trkpt>
<trkpt lat="53.1560913404" lon="-3.2434620063"><ele>409</ele><time>2011-12-18T10:07:37Z</time></trkpt>
<trkpt lat="53.1560510000" lon="-3.2436796665"><ele>412</ele><time>2011-12-18T10:07:56Z</time></trkpt>
<trkpt lat="53.1560026646" lon="-3.2439024925"><ele>413</ele><time>2011-12-18T10:08:14Z</time></trkpt>
<trkpt lat="53.1559848309" lon="-3.2441260020"><ele>415</ele><time>2011-12-18T10:08:31Z</time></trkpt>
<trkpt lat="53.1559626738" lon="-3.2443478266"><ele>417</ele><time>2011-12-18T10:08:50Z</time></trkpt>
<trkpt lat="53.1559354941" lon="-3.2445768356"><ele>421</ele><time>2011-12-18T10:09:11Z</time></trkpt>
<trkpt lat="53.1559120019" lon="-3.2448066711"><ele>424</ele><time>2011-12-18T10:09:30Z</time></trkpt>
<trkpt lat="53.1558793386" lon="-3.2450245063"><ele>427</ele><time>2011-12-18T10:09:47Z</time></trkpt>
<trkpt lat="53.1558576743" lon="-3.2452543259"><ele>430</ele><time>2011-12-18T10:10:02Z</time></trkpt>
<trkpt lat="53.1558411598" lon="-3.2454870065"><ele>432</ele><time>2011-12-18T10:10:16Z</time></trkpt>
<trkpt lat="53.1558345000" lon="-3.2457301617"><ele>434</ele><time>2011-12-18T10:10:30Z</time></trkpt>
<trkpt lat="53.1558296680" lon="-3.2459596634"><ele>436</ele><time>2011-12-18T10:10:45Z</time></trkpt>
<trkpt lat="53.1558389982" lon="-3.2461953322"><ele>438</ele><time>2011-12-18T10:11:01Z</time></trkpt>
<trkpt lat="53.1558654944" lon="-3.2464226723"><ele>439</ele><time>2011-12-18T10:11:17Z</time></trkpt>
<trkpt lat="53.1558693409" lon="-3.2466546694"><ele>442</ele><time>2011-12-18T10:11:35Z</time></trkpt>
<trkpt lat="53.1558596611" lon="-3.2468901634"><ele>444</ele><time>2011-12-18T10:11:53Z</time></trkpt>
<trkpt lat="53.1558369954" lon="-3.2471155008"><ele>445</ele><time>2011-12-18T10:12:09Z</time></trkpt>
<trkpt lat="53.1558571657" lon="-3.2473391692"><ele>448</ele><time>2011-12-18T10:12:25Z</time></trkpt>
<trkpt lat="53.1558181604" lon="-3.2475605011"><ele>450</ele><time>2011-12-18T10:12:42Z</time></trkpt>
<trkpt lat="53.1558194955" lon="-3.2477858384"><ele>452</ele><time>2011-12-18T10:12:56Z</time></trkpt>
<trkpt lat="53.1558533351" lon="-3.2480031649"><ele>454</ele><time>2011-12-18T10:13:10Z</time></trkpt>
<trkpt lat="53.1559128284" lon="-3.2482176622"><ele>455</ele><time>2011-12-18T10:13:23Z</time></trkpt>
<trkpt lat="53.1559886614" lon="-3.2484114965"><ele>456</ele><time>2011-12-18T10:13:34Z</time></trkpt>
<trkpt lat="53.1560628255" lon="-3.2485990047"><ele>456</ele><time>2011-12-18T10:13:45Z</time></trkpt>
<trkpt lat="53.1561423302" lon="-3.2487871647"><ele>457</ele><time>2011-12-18T10:13:55Z</time></trkpt>
<trkpt lat="53.1562190056" lon="-3.2489723365"><ele>457</ele><time>2011-12-18T10:14:06Z</time></trkpt>
<trkpt lat="53.1562858264" lon="-3.2491860072"><ele>457</ele><time>2011-12-18T10:14:18Z</time></trkpt>
<trkpt lat="53.1563214938" lon="-3.2494184971"><ele>457</ele><time>2011-12-18T10:14:32Z</time></trkpt>
<trkpt lat="53.1562941710" lon="-3.2496439934"><ele>457</ele><time>2011-12-18T10:14:49Z</time></trkpt>
<trkpt lat="53.1562471708" lon="-3.2498573303"><ele>458</ele><time>2011-12-18T10:15:08Z</time></trkpt>
<trkpt lat="53.1561824958" lon="-3.2500681718"><ele>459</ele><time>2011-12-18T10:15:28Z</time></trkpt>
<trkpt lat="53.1561593374" lon="-3.2503006617"><ele>462</ele><time>2011-12-18T10:15:53Z</time></trkpt>
<trkpt lat="53.1561118285" lon="-3.2505174955"><ele>464</ele><time>2011-12-18T10:16:15Z</time></trkpt>
<trkpt lat="53.1560625076" lon="-3.2507281621"><ele>466</ele><time>2011-12-18T10:16:32Z</time></trkpt>
<trkpt lat="53.1559981664" lon="-3.2509414991"><ele>469</ele><time>2011-12-18T10:16:52Z</time></trkpt>
<trkpt lat="53.1559523265" lon="-3.2511565049"><ele>471</ele><time>2011-12-18T10:17:06Z</time></trkpt>
<trkpt lat="53.1558418274" lon="-3.2513003349"><ele>475</ele><time>2011-12-18T10:17:30Z</time></trkpt>
<trkpt lat="53.1557521661" lon="-3.2514829954"><ele>480</ele><time>2011-12-18T10:17:53Z</time></trkpt>
<trkpt lat="53.1556619962" lon="-3.2516553402"><ele>483</ele><time>2011-12-18T10:18:14Z</time></trkpt>
<trkpt lat="53.1555801709" lon="-3.2518498262"><ele>486</ele><time>2011-12-18T10:18:30Z</time></trkpt>
<trkpt lat="53.1554769993" lon="-3.2520058314"><ele>490</ele><time>2011-12-18T10:18:47Z</time></trkpt>
<trkpt lat="53.1553866704" lon="-3.2521766663"><ele>493</ele><time>2011-12-18T10:19:01Z</time></trkpt>
<trkpt lat="53.1552930037" lon="-3.2523383300"><ele>495</ele><time>2011-12-18T10:19:13Z</time></trkpt>
<trkpt lat="53.1552110036" lon="-3.2525355021"><ele>497</ele><time>2011-12-18T10:19:26Z</time></trkpt>
<trkpt lat="53.1551363309" lon="-3.2527324994"><ele>499</ele><time>2011-12-18T10:19:42Z</time></trkpt>
<trkpt lat="53.1550789992" lon="-3.2529363314"><ele>501</ele><time>2011-12-18T10:19:58Z</time></trkpt>
<trkpt lat="53.1550006708" lon="-3.2531239986"><ele>504</ele><time>2011-12-18T10:20:18Z</time></trkpt>
<trkpt lat="53.1549373309" lon="-3.2533271631"><ele>507</ele><time>2011-12-18T10:20:40Z</time></trkpt>
<trkpt lat="53.1548665047" lon="-3.2535188357"><ele>511</ele><time>2011-12-18T10:21:05Z</time></trkpt>
<trkpt lat="53.1548160076" lon="-3.2537301699"><ele>515</ele><time>2011-12-18T10:21:23Z</time></trkpt>
<trkpt lat="53.1547516664" lon="-3.2539285024"><ele>517</ele><time>2011-12-18T10:21:40Z</time></trkpt>
<trkpt lat="53.1547029972" lon="-3.2541413307"><ele>521</ele><time>2011-12-18T10:22:02Z</time></trkpt>
<trkpt lat="53.1546218395" lon="-3.2543214957"><ele>525</ele><time>2011-12-18T10:22:27Z</time></trkpt>
<trkpt lat="53.1545178254" lon="-3.2544726690"><ele>532</ele><time>2011-12-18T10:22:51Z</time></trkpt>
<trkpt lat="53.1544483344" lon="-3.2546766599"><ele>538</ele><time>2011-12-18T10:23:21Z</time></trkpt>
<trkpt lat="53.1543975035" lon="-3.2548886617"><ele>542</ele><time>2011-12-18T10:23:42Z</time></trkpt>
<trkpt lat="53.1543916702" lon="-3.2551131725"><ele>546</ele><time>2011-12-18T10:24:12Z</time></trkpt>
<trkpt lat="53.1543776671" lon="-3.2553491592"><ele>557</ele><time>2011-12-18T10:29:40Z</time></trkpt>
<trkpt lat="53.1543488344" lon="-3.2555821737"><ele>557</ele><time>2011-12-18T10:29:55Z</time></trkpt>
<trkpt lat="53.1543358326" lon="-3.2558123271"><ele>557</ele><time>2011-12-18T10:30:14Z</time></trkpt>
<trkpt lat="53.1544446627" lon="-3.2559501648"><ele>557</ele><time>2011-12-18T10:32:26Z</time></trkpt>
<trkpt lat="53.1543153286" lon="-3.2558788300"><ele>556</ele><time>2011-12-18T10:44:17Z</time></trkpt>
<trkpt lat="53.1542518298" lon="-3.2560801665"><ele>557</ele><time>2011-12-18T10:44:46Z</time></trkpt>
<trkpt lat="53.1543515046" lon="-3.2562349955"><ele>557</ele><time>2011-12-18T10:45:04Z</time></trkpt>
<trkpt lat="53.1544005076" lon="-3.2564563274"><ele>557</ele><time>2011-12-18T10:45:19Z</time></trkpt>
<trkpt lat="53.1544438362" lon="-3.2566811721"><ele>557</ele><time>2011-12-18T10:45:33Z</time></trkpt>
<trkpt lat="53.1544834932" lon="-3.2569048405"><ele>554</ele><time>2011-12-18T10:45:48Z</time></trkpt>
<trkpt lat="53.1545728366" lon="-3.2570960045"><ele>553</ele><time>2011-12-18T10:46:02Z</time></trkpt>
<trkpt lat="53.1546840032" lon="-3.2572234948"><ele>552</ele><time>2011-12-18T10:46:14Z</time></trkpt>
<trkpt lat="53.1547711690" lon="-3.2574081739"><ele>549</ele><time>2011-12-18T10:46:28Z</time></trkpt>
<trkpt lat="53.1548001607" lon="-3.2576358318"><ele>548</ele><time>2011-12-18T10:46:40Z</time></trkpt>
<trkpt lat="53.1549011707" lon="-3.2577968280"><ele>548</ele><time>2011-12-18T10:46:52Z</time></trkpt>
<trkpt lat="53.1550069968" lon="-3.2579363346"><ele>548</ele><time>2011-12-18T10:47:05Z</time></trkpt>
<trkpt lat="53.1551128387" lon="-3.2580951691"><ele>548</ele><time>2011-12-18T10:47:19Z</time></trkpt>
<trkpt lat="53.1552121639" lon="-3.2582705021"><ele>546</ele><time>2011-12-18T10:47:50Z</time></trkpt>
<trkpt lat="53.1552983284" lon="-3.2584510008"><ele>546</ele><time>2011-12-18T10:48:03Z</time></trkpt>
<trkpt lat="53.1553665002" lon="-3.2586496671"><ele>546</ele><time>2011-12-18T10:48:14Z</time></trkpt>
<trkpt lat="53.1554049969" lon="-3.2588731607"><ele>545</ele><time>2011-12-18T10:48:26Z</time></trkpt>
<trkpt lat="53.1554004987" lon="-3.2590983391"><ele>544</ele><time>2011-12-18T10:48:37Z</time></trkpt>
<trkpt lat="53.1554473400" lon="-3.2593223254"><ele>540</ele><time>2011-12-18T10:48:51Z</time></trkpt>
<trkpt lat="53.1555338383" lon="-3.2595006625"><ele>536</ele><time>2011-12-18T10:49:04Z</time></trkpt>
<trkpt lat="53.1556318283" lon="-3.2596820037"><ele>534</ele><time>2011-12-18T10:49:16Z</time></trkpt>
<trkpt lat="53.1556928317" lon="-3.2598961671"><ele>532</ele><time>2011-12-18T10:49:30Z</time></trkpt>
<trkpt lat="53.1557215055" lon="-3.2601171652"><ele>528</ele><time>2011-12-18T10:49:44Z</time></trkpt>
<trkpt lat="53.1557568391" lon="-3.2603526592"><ele>525</ele><time>2011-12-18T10:49:58Z</time></trkpt>
<trkpt lat="53.1557889938" lon="-3.2605763276"><ele>523</ele><time>2011-12-18T10:50:10Z</time></trkpt>
<trkpt lat="53.1558178266" lon="-3.2608005047"><ele>517</ele><time>2011-12-18T10:50:24Z</time></trkpt>
<trkpt lat="53.1558668296" lon="-3.2610126654"><ele>511</ele><time>2011-12-18T10:50:37Z</time></trkpt>
<trkpt lat="53.1558948358" lon="-3.2612433275"><ele>510</ele><time>2011-12-18T10:50:51Z</time></trkpt>
<trkpt lat="53.1559085051" lon="-3.2614706675"><ele>507</ele><time>2011-12-18T10:51:09Z</time></trkpt>
<trkpt lat="53.1559295019" lon="-3.2617066701"><ele>502</ele><time>2011-12-18T10:51:24Z</time></trkpt>
<trkpt lat="53.1559779962" lon="-3.2619236628"><ele>499</ele><time>2011-12-18T10:51:38Z</time></trkpt>
<trkpt lat="53.1560251713" lon="-3.2621455034"><ele>492</ele><time>2011-12-18T10:51:53Z</time></trkpt>
<trkpt lat="53.1561136723" lon="-3.2623341719"><ele>488</ele><time>2011-12-18T10:52:08Z</time></trkpt>
<trkpt lat="53.1561220010" lon="-3.2625689983"><ele>483</ele><time>2011-12-18T10:52:23Z</time></trkpt>
<trkpt lat="53.1561781724" lon="-3.2627750079"><ele>475</ele><time>2011-12-18T10:52:41Z</time></trkpt>
<trkpt lat="53.1561133385" lon="-3.2629903316"><ele>470</ele><time>2011-12-18T10:52:57Z</time></trkpt>
<trkpt lat="53.1560716629" lon="-3.2632063389"><ele>466</ele><time>2011-12-18T10:53:12Z</time></trkpt>
<trkpt lat="53.1560440063" lon="-3.2634396712"><ele>463</ele><time>2011-12-18T10:53:23Z</time></trkpt>
<trkpt lat="53.1559778372" lon="-3.2636353334"><ele>459</ele><time>2011-12-18T10:53:38Z</time></trkpt>
<trkpt lat="53.1559858322" lon="-3.2638671716"><ele>458</ele><time>2011-12-18T10:53:54Z</time></trkpt>
<trkpt lat="53.1559768359" lon="-3.2640956720"><ele>456</ele><time>2011-12-18T10:54:08Z</time></trkpt>
<trkpt lat="53.1559368292" lon="-3.2643273354"><ele>456</ele><time>2011-12-18T10:54:21Z</time></trkpt>
<trkpt lat="53.1559338411" lon="-3.2645579974"><ele>456</ele><time>2011-12-18T10:54:35Z</time></trkpt>
<trkpt lat="53.1559243361" lon="-3.2647993406"><ele>455</ele><time>2011-12-18T10:54:48Z</time></trkpt>
<trkpt lat="53.1559098403" lon="-3.2650373300"><ele>455</ele><time>2011-12-18T10:55:01Z</time></trkpt>
<trkpt lat="53.1559076627" lon="-3.2652725061"><ele>453</ele><time>2011-12-18T10:55:14Z</time></trkpt>
<trkpt lat="53.1559498310" lon="-3.2654956659"><ele>454</ele><time>2011-12-18T10:55:26Z</time></trkpt>
<trkpt lat="53.1560080051" lon="-3.2657035033"><ele>453</ele><time>2011-12-18T10:55:37Z</time></trkpt>
<trkpt lat="53.1560798327" lon="-3.2659121672"><ele>454</ele><time>2011-12-18T10:55:49Z</time></trkpt>
<trkpt lat="53.1561528365" lon="-3.2661129951"><ele>454</ele><time>2011-12-18T10:56:01Z</time></trkpt>
<trkpt lat="53.1562106609" lon="-3.2663323402"><ele>454</ele><time>2011-12-18T10:56:13Z</time></trkpt>
<trkpt lat="53.1562721729" lon="-3.2665438334"><ele>454</ele><time>2011-12-18T10:56:24Z</time></trkpt>
<trkpt lat="53.1563275019" lon="-3.2667628288"><ele>454</ele><time>2011-12-18T10:56:35Z</time></trkpt>
<trkpt lat="53.1563885053" lon="-3.2669839859"><ele>453</ele><time>2011-12-18T10:56:46Z</time></trkpt>
<trkpt lat="53.1564311663" lon="-3.2672033310"><ele>451</ele><time>2011-12-18T10:56:58Z</time></trkpt>
<trkpt lat="53.1565336704" lon="-3.2673696518"><ele>450</ele><time>2011-12-18T10:57:10Z</time></trkpt>
<trkpt lat="53.1565941652" lon="-3.2675846736"><ele>449</ele><time>2011-12-18T10:57:23Z</time></trkpt>
<trkpt lat="53.1566551685" lon="-3.2677931786"><ele>448</ele><time>2011-12-18T10:57:35Z</time></trkpt>
<trkpt lat="53.1567118327" lon="-3.2679973284"><ele>448</ele><time>2011-12-18T10:57:46Z</time></trkpt>
<trkpt lat="53.1567771594" lon="-3.2682001750"><ele>447</ele><time>2011-12-18T10:57:57Z</time></trkpt>
<trkpt lat="53.1568254948" lon="-3.2684194883"><ele>447</ele><time>2011-12-18T10:58:08Z</time></trkpt>
<trkpt lat="53.1568681717" lon="-3.2686346690"><ele>447</ele><time>2011-12-18T10:58:20Z</time></trkpt>
<trkpt lat="53.1569401741" lon="-3.2688308398"><ele>447</ele><time>2011-12-18T10:58:33Z</time></trkpt>
<trkpt lat="53.1569918315" lon="-3.2690479914"><ele>447</ele><time>2011-12-18T10:58:45Z</time></trkpt>
<trkpt lat="53.1570519924" lon="-3.2692619960"><ele>446</ele><time>2011-12-18T10:58:56Z</time></trkpt>
<trkpt lat="53.1571068287" lon="-3.2694714864"><ele>445</ele><time>2011-12-18T10:59:09Z</time></trkpt>
<trkpt lat="53.1571369966" lon="-3.2697031657"><ele>443</ele><time>2011-12-18T10:59:22Z</time></trkpt>
<trkpt lat="53.1571585019" lon="-3.2699425062"><ele>442</ele><time>2011-12-18T10:59:36Z</time></trkpt>
<trkpt lat="53.1571923256" lon="-3.2701598485"><ele>440</ele><time>2011-12-18T10:59:48Z</time></trkpt>
<trkpt lat="53.1572428385" lon="-3.2703796705"><ele>440</ele><time>2011-12-18T11:00:05Z</time></trkpt>
<trkpt lat="53.1573106607" lon="-3.2705878258"><ele>440</ele><time>2011-12-18T11:00:18Z</time></trkpt>
<trkpt lat="53.1573518276" lon="-3.2708051682"><ele>440</ele><time>2011-12-18T11:00:30Z</time></trkpt>
<trkpt lat="53.1573963324" lon="-3.2710321744"><ele>440</ele><time>2011-12-18T11:00:42Z</time></trkpt>
<trkpt lat="53.1574855010" lon="-3.2712176641"><ele>440</ele><time>2011-12-18T11:00:56Z</time></trkpt>
<trkpt lat="53.1576130072" lon="-3.2713040034"><ele>440</ele><time>2011-12-18T11:01:08Z</time></trkpt>
<trkpt lat="53.1577508291" lon="-3.2713381767"><ele>440</ele><time>2011-12-18T11:01:20Z</time></trkpt>
<trkpt lat="53.1578841686" lon="-3.2713713328"><ele>440</ele><time>2011-12-18T11:01:32Z</time></trkpt>
<trkpt lat="53.1580263297" lon="-3.2714075089"><ele>439</ele><time>2011-12-18T11:01:44Z</time></trkpt>
<trkpt lat="53.1581651688" lon="-3.2714338303"><ele>438</ele><time>2011-12-18T11:01:57Z</time></trkpt>
<trkpt lat="53.1583020051" lon="-3.2714763323"><ele>438</ele><time>2011-12-18T11:02:11Z</time></trkpt>
<trkpt lat="53.1584375064" lon="-3.2715163231"><ele>439</ele><time>2011-12-18T11:02:26Z</time></trkpt>
<trkpt lat="53.1585739930" lon="-3.2715298335"><ele>440</ele><time>2011-12-18T11:02:44Z</time></trkpt>
<trkpt lat="53.1587128321" lon="-3.2715283394"><ele>441</ele><time>2011-12-18T11:03:04Z</time></trkpt>
<trkpt lat="53.1588511626" lon="-3.2715499878"><ele>444</ele><time>2011-12-18T11:03:23Z</time></trkpt>
<trkpt lat="53.1589833260" lon="-3.2716069857"><ele>447</ele><time>2011-12-18T11:03:45Z</time></trkpt>
<trkpt lat="53.1591138363" lon="-3.2716738383"><ele>450</ele><time>2011-12-18T11:04:03Z</time></trkpt>
<trkpt lat="53.1592520078" lon="-3.2717104912"><ele>452</ele><time>2011-12-18T11:04:20Z</time></trkpt>
<trkpt lat="53.1593935013" lon="-3.2717693329"><ele>454</ele><time>2011-12-18T11:04:37Z</time></trkpt>
<trkpt lat="53.1594883283" lon="-3.2719328245"><ele>461</ele><time>2011-12-18T11:05:13Z</time></trkpt>
<trkpt lat="53.1595701694" lon="-3.2721183459"><ele>463</ele><time>2011-12-18T11:05:29Z</time></trkpt>
<trkpt lat="53.1597066720" lon="-3.2720686595"><ele>466</ele><time>2011-12-18T11:07:16Z</time></trkpt>
<trkpt lat="53.1597813288" lon="-3.2718738238"><ele>467</ele><time>2011-12-18T11:07:28Z</time></trkpt>
<trkpt lat="53.1599036694" lon="-3.2717760086"><ele>467</ele><time>2011-12-18T11:07:39Z</time></trkpt>
<trkpt lat="53.1600396633" lon="-3.2717549960"><ele>467</ele><time>2011-12-18T11:07:50Z</time></trkpt>
<trkpt lat="53.1601786613" lon="-3.2717009862"><ele>467</ele><time>2011-12-18T11:08:01Z</time></trkpt>
<trkpt lat="53.1603183270" lon="-3.2717243195"><ele>466</ele><time>2011-12-18T11:08:12Z</time></trkpt>
<trkpt lat="53.1604603291" lon="-3.2716821671"><ele>465</ele><time>2011-12-18T11:08:23Z</time></trkpt>
<trkpt lat="53.1606060028" lon="-3.2716501554"><ele>465</ele><time>2011-12-18T11:08:34Z</time></trkpt>
<trkpt lat="53.1607399940" lon="-3.2715851784"><ele>463</ele><time>2011-12-18T11:08:45Z</time></trkpt>
<trkpt lat="53.1608740012" lon="-3.2715546608"><ele>462</ele><time>2011-12-18T11:08:56Z</time></trkpt>
<trkpt lat="53.1610154947" lon="-3.2715116819"><ele>461</ele><time>2011-12-18T11:09:07Z</time></trkpt>
<trkpt lat="53.1611619949" lon="-3.2714625041"><ele>460</ele><time>2011-12-18T11:09:19Z</time></trkpt>
<trkpt lat="53.1612948259" lon="-3.2714243253"><ele>459</ele><time>2011-12-18T11:09:29Z</time></trkpt>
<trkpt lat="53.1614396731" lon="-3.2714221636"><ele>458</ele><time>2011-12-18T11:09:41Z</time></trkpt>
<trkpt lat="53.1615813255" lon="-3.2714410146"><ele>456</ele><time>2011-12-18T11:09:54Z</time></trkpt>
<trkpt lat="53.1617201646" lon="-3.2715039889"><ele>456</ele><time>2011-12-18T11:10:07Z</time></trkpt>
<trkpt lat="53.1618521690" lon="-3.2715501785"><ele>455</ele><time>2011-12-18T11:10:18Z</time></trkpt>
<trkpt lat="53.1619833310" lon="-3.2716133436"><ele>454</ele><time>2011-12-18T11:10:28Z</time></trkpt>
<trkpt lat="53.1621225039" lon="-3.2716543198"><ele>454</ele><time>2011-12-18T11:10:40Z</time></trkpt>
<trkpt lat="53.1622541746" lon="-3.2717221578"><ele>453</ele><time>2011-12-18T11:10:51Z</time></trkpt>
<trkpt lat="53.1623821735" lon="-3.2718091647"><ele>453</ele><time>2011-12-18T11:11:02Z</time></trkpt>
<trkpt lat="53.1625076612" lon="-3.2719259898"><ele>452</ele><time>2011-12-18T11:11:13Z</time></trkpt>
<trkpt lat="53.1626249949" lon="-3.2720631599"><ele>451</ele><time>2011-12-18T11:11:25Z</time></trkpt>
<trkpt lat="53.1627600034" lon="-3.2720926603"><ele>451</ele><time>2011-12-18T11:11:37Z</time></trkpt>
<trkpt lat="53.1628829956" lon="-3.2721873283"><ele>450</ele><time>2011-12-18T11:11:48Z</time></trkpt>
<trkpt lat="53.1629951636" lon="-3.2723213196"><ele>450</ele><time>2011-12-18T11:12:00Z</time></trkpt>
<trkpt lat="53.1630958398" lon="-3.2724809964"><ele>450</ele><time>2011-12-18T11:12:11Z</time></trkpt>
<trkpt lat="53.1631659985" lon="-3.2726726532"><ele>450</ele><time>2011-12-18T11:12:21Z</time></trkpt>
<trkpt lat="53.1632585049" lon="-3.2728623390"><ele>450</ele><time>2011-12-18T11:12:33Z</time></trkpt>
<trkpt lat="53.1633683364" lon="-3.2730161667"><ele>449</ele><time>2011-12-18T11:12:45Z</time></trkpt>
<trkpt lat="53.1634868304" lon="-3.2731408437"><ele>449</ele><time>2011-12-18T11:12:57Z</time></trkpt>
<trkpt lat="53.1635976632" lon="-3.2732883453"><ele>447</ele><time>2011-12-18T11:13:09Z</time></trkpt>
<trkpt lat="53.1636951605" lon="-3.2734618187"><ele>444</ele><time>2011-12-18T11:13:21Z</time></trkpt>
<trkpt lat="53.1637648265" lon="-3.2736755053"><ele>443</ele><time>2011-12-18T11:13:33Z</time></trkpt>
<trkpt lat="53.1637936592" lon="-3.2738986651"><ele>441</ele><time>2011-12-18T11:13:44Z</time></trkpt>
<trkpt lat="53.1638134956" lon="-3.2741308212"><ele>440</ele><time>2011-12-18T11:13:55Z</time></trkpt>
<trkpt lat="53.1638390064" lon="-3.2743533452"><ele>439</ele><time>2011-12-18T11:14:06Z</time></trkpt>
<trkpt lat="53.1639115016" lon="-3.2745453199"><ele>438</ele><time>2011-12-18T11:14:17Z</time></trkpt>
<trkpt lat="53.1640053272" lon="-3.2747251511"><ele>436</ele><time>2011-12-18T11:14:28Z</time></trkpt>
<trkpt lat="53.1641003291" lon="-3.2748948415"><ele>434</ele><time>2011-12-18T11:14:39Z</time></trkpt>
<trkpt lat="53.1641861598" lon="-3.2750800133"><ele>432</ele><time>2011-12-18T11:14:50Z</time></trkpt>
<trkpt lat="53.1642493407" lon="-3.2753008207"><ele>431</ele><time>2011-12-18T11:15:01Z</time></trkpt>
<trkpt lat="53.1643571695" lon="-3.2754558245"><ele>429</ele><time>2011-12-18T11:15:12Z</time></trkpt>
<trkpt lat="53.1644729932" lon="-3.2755866687"><ele>427</ele><time>2011-12-18T11:15:31Z</time></trkpt>
<trkpt lat="53.1646036625" lon="-3.2756606738"><ele>426</ele><time>2011-12-18T11:15:47Z</time></trkpt>
<trkpt lat="53.1647373358" lon="-3.2757533391"><ele>424</ele><time>2011-12-18T11:16:00Z</time></trkpt>
<trkpt lat="53.1648735046" lon="-3.2758246740"><ele>422</ele><time>2011-12-18T11:16:12Z</time></trkpt>
<trkpt lat="53.1650054932" lon="-3.2759215037"><ele>420</ele><time>2011-12-18T11:16:24Z</time></trkpt>
<trkpt lat="53.1651293278" lon="-3.2760211627"><ele>419</ele><time>2011-12-18T11:16:35Z</time></trkpt>
<trkpt lat="53.1652656714" lon="-3.2760728200"><ele>418</ele><time>2011-12-18T11:16:46Z</time></trkpt>
<trkpt lat="53.1653901736" lon="-3.2761678378"><ele>417</ele><time>2011-12-18T11:16:57Z</time></trkpt>
<trkpt lat="53.1655210018" lon="-3.2762731552"><ele>415</ele><time>2011-12-18T11:17:09Z</time></trkpt>
<trkpt lat="53.1656541665" lon="-3.2763785044"><ele>413</ele><time>2011-12-18T11:17:22Z</time></trkpt>
<trkpt lat="53.1657875061" lon="-3.2764676730"><ele>412</ele><time>2011-12-18T11:17:34Z</time></trkpt>
<trkpt lat="53.1659190019" lon="-3.2765706698"><ele>411</ele><time>2011-12-18T11:17:46Z</time></trkpt>
<trkpt lat="53.1660343329" lon="-3.2767089844"><ele>410</ele><time>2011-12-18T11:17:57Z</time></trkpt>
<trkpt lat="53.1661434968" lon="-3.2768526713"><ele>410</ele><time>2011-12-18T11:18:08Z</time></trkpt>
<trkpt lat="53.1662248294" lon="-3.2770416578"><ele>410</ele><time>2011-12-18T11:18:19Z</time></trkpt>
<trkpt lat="53.1663288275" lon="-3.2772071520"><ele>409</ele><time>2011-12-18T11:18:31Z</time></trkpt>
<trkpt lat="53.1664325078" lon="-3.2773628235"><ele>408</ele><time>2011-12-18T11:18:42Z</time></trkpt>
<trkpt lat="53.1665281614" lon="-3.2775268237"><ele>408</ele><time>2011-12-18T11:18:55Z</time></trkpt>
<trkpt lat="53.1666240056" lon="-3.2776963234"><ele>408</ele><time>2011-12-18T11:19:07Z</time></trkpt>
<trkpt lat="53.1667191664" lon="-3.2778633436"><ele>409</ele><time>2011-12-18T11:19:19Z</time></trkpt>
<trkpt lat="53.1667988300" lon="-3.2780528386"><ele>410</ele><time>2011-12-18T11:19:34Z</time></trkpt>
<trkpt lat="53.1668813388" lon="-3.2782404900"><ele>411</ele><time>2011-12-18T11:19:48Z</time></trkpt>
<trkpt lat="53.1669646740" lon="-3.2784303347"><ele>411</ele><time>2011-12-18T11:19:59Z</time></trkpt>
<trkpt lat="53.1670646667" lon="-3.2786074956"><ele>412</ele><time>2011-12-18T11:20:31Z</time></trkpt>
<trkpt lat="53.1671164989" lon="-3.2788231532"><ele>412</ele><time>2011-12-18T11:20:43Z</time></trkpt>
<trkpt lat="53.1672194958" lon="-3.2789726575"><ele>411</ele><time>2011-12-18T11:20:56Z</time></trkpt>
<trkpt lat="53.1673081716" lon="-3.2791626612"><ele>411</ele><time>2011-12-18T11:21:10Z</time></trkpt>
<trkpt lat="53.1674111684" lon="-3.2793273290"><ele>410</ele><time>2011-12-18T11:21:21Z</time></trkpt>
<trkpt lat="53.1674845060" lon="-3.2795185089"><ele>409</ele><time>2011-12-18T11:21:32Z</time></trkpt>
<trkpt lat="53.1675535043" lon="-3.2797213236"><ele>408</ele><time>2011-12-18T11:21:46Z</time></trkpt>
<trkpt lat="53.1675681591" lon="-3.2799539884"><ele>407</ele><time>2011-12-18T11:22:03Z</time></trkpt>
<trkpt lat="53.1676125050" lon="-3.2801699956"><ele>406</ele><time>2011-12-18T11:22:22Z</time></trkpt>
<trkpt lat="53.1676994960" lon="-3.2803581556"><ele>406</ele><time>2011-12-18T11:22:36Z</time></trkpt>
<trkpt lat="53.1678336620" lon="-3.2804666519"><ele>406</ele><time>2011-12-18T11:22:47Z</time></trkpt>
<trkpt lat="53.1679599921" lon="-3.2805486679"><ele>406</ele><time>2011-12-18T11:22:59Z</time></trkpt>
<trkpt lat="53.1680908362" lon="-3.2806420008"><ele>406</ele><time>2011-12-18T11:23:11Z</time></trkpt>
<trkpt lat="53.1682198366" lon="-3.2807476679"><ele>406</ele><time>2011-12-18T11:23:24Z</time></trkpt>
<trkpt lat="53.1683451653" lon="-3.2808516820"><ele>406</ele><time>2011-12-18T11:23:38Z</time></trkpt>
<trkpt lat="53.1684740067" lon="-3.2809456825"><ele>406</ele><time>2011-12-18T11:23:53Z</time></trkpt>
<trkpt lat="53.1686065038" lon="-3.2810113271"><ele>406</ele><time>2011-12-18T11:24:07Z</time></trkpt>
<trkpt lat="53.1687170029" lon="-3.2808629990"><ele>406</ele><time>2011-12-18T11:24:20Z</time></trkpt>
<trkpt lat="53.1688285033" lon="-3.2807268461"><ele>406</ele><time>2011-12-18T11:24:31Z</time></trkpt>
<trkpt lat="53.1689504941" lon="-3.2806073189"><ele>406</ele><time>2011-12-18T11:24:42Z</time></trkpt>
<trkpt lat="53.1690551599" lon="-3.2804320017"><ele>406</ele><time>2011-12-18T11:24:52Z</time></trkpt>
<trkpt lat="53.1691786607" lon="-3.2803215027"><ele>406</ele><time>2011-12-18T11:25:05Z</time></trkpt>
<trkpt lat="53.1693051656" lon="-3.2801976522"><ele>405</ele><time>2011-12-18T11:25:18Z</time></trkpt>
<trkpt lat="53.1694355011" lon="-3.2800988197"><ele>405</ele><time>2011-12-18T11:25:30Z</time></trkpt>
<trkpt lat="53.1695671717" lon="-3.2800151825"><ele>406</ele><time>2011-12-18T11:25:43Z</time></trkpt>
<trkpt lat="53.1696945031" lon="-3.2799303373"><ele>406</ele><time>2011-12-18T11:26:00Z</time></trkpt>
<trkpt lat="53.1698263327" lon="-3.2798558235"><ele>407</ele><time>2011-12-18T11:26:18Z</time></trkpt>
<trkpt lat="53.1699655056" lon="-3.2798225085"><ele>408</ele><time>2011-12-18T11:26:32Z</time></trkpt>
<trkpt lat="53.1701018333" lon="-3.2798060099"><ele>409</ele><time>2011-12-18T11:26:49Z</time></trkpt>
<trkpt lat="53.1702284972" lon="-3.2797141711"><ele>410</ele><time>2011-12-18T11:27:03Z</time></trkpt>
<trkpt lat="53.1703361670" lon="-3.2795546532"><ele>411</ele><time>2011-12-18T11:27:16Z</time></trkpt>
<trkpt lat="53.1704404990" lon="-3.2793714841"><ele>412</ele><time>2011-12-18T11:27:29Z</time></trkpt>
<trkpt lat="53.1705668290" lon="-3.2792853355"><ele>413</ele><time>2011-12-18T11:27:40Z</time></trkpt>
<trkpt lat="53.1707028389" lon="-3.2791908264"><ele>413</ele><time>2011-12-18T11:27:52Z</time></trkpt>
<trkpt lat="53.1708418369" lon="-3.2791159948"><ele>414</ele><time>2011-12-18T11:28:03Z</time></trkpt>
<trkpt lat="53.1709705035" lon="-3.2790188471"><ele>415</ele><time>2011-12-18T11:28:17Z</time></trkpt>
<trkpt lat="53.1710998376" lon="-3.2789166768"><ele>416</ele><time>2011-12-18T11:28:30Z</time></trkpt>
<trkpt lat="53.1712376595" lon="-3.2788531621"><ele>417</ele><time>2011-12-18T11:28:46Z</time></trkpt>
<trkpt lat="53.1713568370" lon="-3.2787253380"><ele>419</ele><time>2011-12-18T11:29:01Z</time></trkpt>
<trkpt lat="53.1714846611" lon="-3.2786435127"><ele>421</ele><time>2011-12-18T11:29:21Z</time></trkpt>
<trkpt lat="53.1716203372" lon="-3.2785696665"><ele>423</ele><time>2011-12-18T11:29:36Z</time></trkpt>
<trkpt lat="53.1717474937" lon="-3.2784881592"><ele>425</ele><time>2011-12-18T11:29:49Z</time></trkpt>
<trkpt lat="53.1718858401" lon="-3.2784738223"><ele>426</ele><time>2011-12-18T11:30:02Z</time></trkpt>
<trkpt lat="53.1720216592" lon="-3.2785086632"><ele>427</ele><time>2011-12-18T11:30:14Z</time></trkpt>
<trkpt lat="53.1721581618" lon="-3.2785343488"><ele>428</ele><time>2011-12-18T11:30:26Z</time></trkpt>
<trkpt lat="53.1723006725" lon="-3.2785244942"><ele>429</ele><time>2011-12-18T11:30:39Z</time></trkpt>
<trkpt lat="53.1724458377" lon="-3.2785054843"><ele>430</ele><time>2011-12-18T11:30:51Z</time></trkpt>
<trkpt lat="53.1725821654" lon="-3.2785184860"><ele>431</ele><time>2011-12-18T11:31:02Z</time></trkpt>
<trkpt lat="53.1727168401" lon="-3.2786085129"><ele>432</ele><time>2011-12-18T11:31:13Z</time></trkpt>
<trkpt lat="53.1728193283" lon="-3.2787631671"><ele>433</ele><time>2011-12-18T11:31:24Z</time></trkpt>
<trkpt lat="53.1729548295" lon="-3.2788128217"><ele>435</ele><time>2011-12-18T11:31:36Z</time></trkpt>
<trkpt lat="53.1730753263" lon="-3.2789136569"><ele>436</ele><time>2011-12-18T11:31:47Z</time></trkpt>
<trkpt lat="53.1731973330" lon="-3.2790181796"><ele>436</ele><time>2011-12-18T11:31:58Z</time></trkpt>
<trkpt lat="53.1733436743" lon="-3.2790263176"><ele>438</ele><time>2011-12-18T11:32:11Z</time></trkpt>
<trkpt lat="53.1734851678" lon="-3.2789806684"><ele>439</ele><time>2011-12-18T11:32:23Z</time></trkpt>
<trkpt lat="53.1736200015" lon="-3.2789160093"><ele>439</ele><time>2011-12-18T11:32:36Z</time></trkpt>
<trkpt lat="53.1737613360" lon="-3.2788790067"><ele>441</ele><time>2011-12-18T11:32:48Z</time></trkpt>
<trkpt lat="53.1738945007" lon="-3.2789228439"><ele>441</ele><time>2011-12-18T11:33:00Z</time></trkpt>
<trkpt lat="53.1740333398" lon="-3.2789376577"><ele>442</ele><time>2011-12-18T11:33:13Z</time></trkpt>
<trkpt lat="53.1741740068" lon="-3.2789416631"><ele>443</ele><time>2011-12-18T11:33:27Z</time></trkpt>
<trkpt lat="53.1743128300" lon="-3.2790065130"><ele>443</ele><time>2011-12-18T11:33:39Z</time></trkpt>
<trkpt lat="53.1744446596" lon="-3.2790621758"><ele>444</ele><time>2011-12-18T11:33:50Z</time></trkpt>
<trkpt lat="53.1745913347" lon="-3.2790776571"><ele>444</ele><time>2011-12-18T11:34:02Z</time></trkpt>
<trkpt lat="53.1747279962" lon="-3.2791246732"><ele>445</ele><time>2011-12-18T11:34:14Z</time></trkpt>
<trkpt lat="53.1748648326" lon="-3.2791953405"><ele>445</ele><time>2011-12-18T11:34:26Z</time></trkpt>
<trkpt lat="53.1750056744" lon="-3.2792333285"><ele>446</ele><time>2011-12-18T11:34:38Z</time></trkpt>
<trkpt lat="53.1751495043" lon="-3.2792625109"><ele>447</ele><time>2011-12-18T11:34:50Z</time></trkpt>
<trkpt lat="53.1752931595" lon="-3.2792768478"><ele>448</ele><time>2011-12-18T11:35:01Z</time></trkpt>
<trkpt lat="53.1754360040" lon="-3.2793143272"><ele>448</ele><time>2011-12-18T11:35:13Z</time></trkpt>
<trkpt lat="53.1755708377" lon="-3.2793046633"><ele>448</ele><time>2011-12-18T11:35:23Z</time></trkpt>
<trkpt lat="53.1757066727" lon="-3.2792940140"><ele>449</ele><time>2011-12-18T11:35:34Z</time></trkpt>
<trkpt lat="53.1758486589" lon="-3.2792931557"><ele>449</ele><time>2011-12-18T11:35:44Z</time></trkpt>
<trkpt lat="53.1759906610" lon="-3.2792931557"><ele>450</ele><time>2011-12-18T11:35:55Z</time></trkpt>
<trkpt lat="53.1761301676" lon="-3.2793061574"><ele>450</ele><time>2011-12-18T11:36:06Z</time></trkpt>
<trkpt lat="53.1762641589" lon="-3.2792271614"><ele>451</ele><time>2011-12-18T11:36:19Z</time></trkpt>
<trkpt lat="53.1763668378" lon="-3.2790685018"><ele>451</ele><time>2011-12-18T11:36:29Z</time></trkpt>
<trkpt lat="53.1764521599" lon="-3.2788834890"><ele>451</ele><time>2011-12-18T11:36:40Z</time></trkpt>
<trkpt lat="53.1765416622" lon="-3.2787000020"><ele>452</ele><time>2011-12-18T11:36:54Z</time></trkpt>
<trkpt lat="53.1766056697" lon="-3.2784955025"><ele>452</ele><time>2011-12-18T11:37:05Z</time></trkpt>
<trkpt lat="53.1766776721" lon="-3.2782871564"><ele>452</ele><time>2011-12-18T11:37:16Z</time></trkpt>
<trkpt lat="53.1767598311" lon="-3.2780861537"><ele>454</ele><time>2011-12-18T11:37:44Z</time></trkpt>
<trkpt lat="53.1768465042" lon="-3.2779135068"><ele>454</ele><time>2011-12-18T11:37:54Z</time></trkpt>
<trkpt lat="53.1769238313" lon="-3.2777241707"><ele>455</ele><time>2011-12-18T11:38:04Z</time></trkpt>
<trkpt lat="53.1770038287" lon="-3.2775341670"><ele>455</ele><time>2011-12-18T11:38:14Z</time></trkpt>
<trkpt lat="53.1770808379" lon="-3.2773440043"><ele>454</ele><time>2011-12-18T11:38:24Z</time></trkpt>
<trkpt lat="53.1771813393" lon="-3.2771796544"><ele>455</ele><time>2011-12-18T11:38:37Z</time></trkpt>
<trkpt lat="53.1772824923" lon="-3.2770301819"><ele>454</ele><time>2011-12-18T11:38:54Z</time></trkpt>
<trkpt lat="53.1774138292" lon="-3.2768678347"><ele>454</ele><time>2011-12-18T11:39:04Z</time></trkpt>
<trkpt lat="53.1775071621" lon="-3.2766903241"><ele>454</ele><time>2011-12-18T11:39:15Z</time></trkpt>
<trkpt lat="53.1776223342" lon="-3.2765518188"><ele>454</ele><time>2011-12-18T11:39:28Z</time></trkpt>
<trkpt lat="53.1777331670" lon="-3.2764181773"><ele>455</ele><time>2011-12-18T11:39:39Z</time></trkpt>
<trkpt lat="53.1778526624" lon="-3.2763085047"><ele>456</ele><time>2011-12-18T11:39:51Z</time></trkpt>
<trkpt lat="53.1779815038" lon="-3.2762421608"><ele>461</ele><time>2011-12-18T11:43:03Z</time></trkpt>
<trkpt lat="53.1781073411" lon="-3.2761433283"><ele>461</ele><time>2011-12-18T11:43:15Z</time></trkpt>
<trkpt lat="53.1782365004" lon="-3.2760589918"><ele>461</ele><time>2011-12-18T11:43:26Z</time></trkpt>
<trkpt lat="53.1783648332" lon="-3.2759763400"><ele>460</ele><time>2011-12-18T11:43:36Z</time></trkpt>
<trkpt lat="53.1784934998" lon="-3.2758740107"><ele>459</ele><time>2011-12-18T11:43:47Z</time></trkpt>
<trkpt lat="53.1786184947" lon="-3.2757789930"><ele>459</ele><time>2011-12-18T11:43:57Z</time></trkpt>
<trkpt lat="53.1787428379" lon="-3.2756908417"><ele>458</ele><time>2011-12-18T11:44:08Z</time></trkpt>
<trkpt lat="53.1788671652" lon="-3.2755863190"><ele>457</ele><time>2011-12-18T11:44:18Z</time></trkpt>
<trkpt lat="53.1789911588" lon="-3.2754661560"><ele>456</ele><time>2011-12-18T11:44:29Z</time></trkpt>
<trkpt lat="53.1791084925" lon="-3.2753476779"><ele>455</ele><time>2011-12-18T11:44:43Z</time></trkpt>
<trkpt lat="53.1792236646" lon="-3.2752279917"><ele>454</ele><time>2011-12-18T11:44:53Z</time></trkpt>
<trkpt lat="53.1793568293" lon="-3.2751878421"><ele>453</ele><time>2011-12-18T11:45:05Z</time></trkpt>
<trkpt lat="53.1794844945" lon="-3.2752820015"><ele>452</ele><time>2011-12-18T11:45:19Z</time></trkpt>
<trkpt lat="53.1796033382" lon="-3.2753996531"><ele>450</ele><time>2011-12-18T11:45:31Z</time></trkpt>
<trkpt lat="53.1797210058" lon="-3.2755306562"><ele>449</ele><time>2011-12-18T11:45:43Z</time></trkpt>
<trkpt lat="53.1798391660" lon="-3.2756436666"><ele>447</ele><time>2011-12-18T11:46:01Z</time></trkpt>
<trkpt lat="53.1799809933" lon="-3.2756551743"><ele>444</ele><time>2011-12-18T11:46:16Z</time></trkpt>
<trkpt lat="53.1801061630" lon="-3.2757529895"><ele>442</ele><time>2011-12-18T11:46:32Z</time></trkpt>
<trkpt lat="53.1802374999" lon="-3.2758293470"><ele>439</ele><time>2011-12-18T11:46:49Z</time></trkpt>
<trkpt lat="53.1803494930" lon="-3.2759631793"><ele>434</ele><time>2011-12-18T11:47:22Z</time></trkpt>
<trkpt lat="53.1804588318" lon="-3.2760979970"><ele>432</ele><time>2011-12-18T11:47:41Z</time></trkpt>
<trkpt lat="53.1805559953" lon="-3.2762653351"><ele>427</ele><time>2011-12-18T11:48:12Z</time></trkpt>
<trkpt lat="53.1806661606" lon="-3.2763991674"><ele>417</ele><time>2011-12-18T11:48:52Z</time></trkpt>
<trkpt lat="53.1807358265" lon="-3.2766033490"><ele>411</ele><time>2011-12-18T11:49:26Z</time></trkpt>
<trkpt lat="53.1808101654" lon="-3.2767928441"><ele>405</ele><time>2011-12-18T11:49:51Z</time></trkpt>
<trkpt lat="53.1808813254" lon="-3.2769926707"><ele>399</ele><time>2011-12-18T11:50:16Z</time></trkpt>
<trkpt lat="53.1809761683" lon="-3.2771580060"><ele>394</ele><time>2011-12-18T11:50:34Z</time></trkpt>
<trkpt lat="53.1810300032" lon="-3.2773654938"><ele>390</ele><time>2011-12-18T11:50:48Z</time></trkpt>
<trkpt lat="53.1811231613" lon="-3.2775338491"><ele>382</ele><time>2011-12-18T11:51:18Z</time></trkpt>
<trkpt lat="53.1812388261" lon="-3.2776764870"><ele>378</ele><time>2011-12-18T11:51:34Z</time></trkpt>
<trkpt lat="53.1813419978" lon="-3.2778531710"><ele>374</ele><time>2011-12-18T11:51:51Z</time></trkpt>
<trkpt lat="53.1814561685" lon="-3.2779910088"><ele>370</ele><time>2011-12-18T11:52:05Z</time></trkpt>
<trkpt lat="53.1815896670" lon="-3.2780746778"><ele>367</ele><time>2011-12-18T11:52:18Z</time></trkpt>
<trkpt lat="53.1817206701" lon="-3.2781468391"><ele>365</ele><time>2011-12-18T11:52:30Z</time></trkpt>
<trkpt lat="53.1818533262" lon="-3.2782058398"><ele>362</ele><time>2011-12-18T11:52:41Z</time></trkpt>
<trkpt lat="53.1819843292" lon="-3.2781435013"><ele>359</ele><time>2011-12-18T11:53:00Z</time></trkpt>
<trkpt lat="53.1821233273" lon="-3.2780721664"><ele>357</ele><time>2011-12-18T11:53:13Z</time></trkpt>
<trkpt lat="53.1822588285" lon="-3.2780458450"><ele>356</ele><time>2011-12-18T11:53:23Z</time></trkpt>
<trkpt lat="53.1823673407" lon="-3.2779121717"><ele>354</ele><time>2011-12-18T11:53:41Z</time></trkpt>
<trkpt lat="53.1824578285" lon="-3.2777409871"><ele>352</ele><time>2011-12-18T11:53:56Z</time></trkpt>
<trkpt lat="53.1825943311" lon="-3.2777413368"><ele>344</ele><time>2011-12-18T12:04:48Z</time></trkpt>
<trkpt lat="53.1826975028" lon="-3.2773090045"><ele>344</ele><time>2011-12-18T12:04:58Z</time></trkpt>
<trkpt lat="53.1826251666" lon="-3.2774996758"><ele>340</ele><time>2011-12-18T12:05:11Z</time></trkpt>
<trkpt lat="53.1826739947" lon="-3.2777099927"><ele>341</ele><time>2011-12-18T12:05:29Z</time></trkpt>
<trkpt lat="53.1825410048" lon="-3.2777715047"><ele>341</ele><time>2011-12-18T12:05:50Z</time></trkpt>
<trkpt lat="53.1824331601" lon="-3.2779341698"><ele>340</ele><time>2011-12-18T12:07:21Z</time></trkpt>
<trkpt lat="53.1825698376" lon="-3.2778693199"><ele>345</ele><time>2011-12-18T12:13:37Z</time></trkpt>
<trkpt lat="53.1826518377" lon="-3.2776824951"><ele>345</ele><time>2011-12-18T12:13:51Z</time></trkpt>
<trkpt lat="53.1827895006" lon="-3.2776821772"><ele>345</ele><time>2011-12-18T12:14:04Z</time></trkpt>
<trkpt lat="53.1829306602" lon="-3.2776430130"><ele>346</ele><time>2011-12-18T12:14:20Z</time></trkpt>
<trkpt lat="53.1830660025" lon="-3.2776823362"><ele>347</ele><time>2011-12-18T12:14:41Z</time></trkpt>
<trkpt lat="53.1832036654" lon="-3.2776755015"><ele>349</ele><time>2011-12-18T12:15:02Z</time></trkpt>
<trkpt lat="53.1833435059" lon="-3.2776465098"><ele>350</ele><time>2011-12-18T12:15:19Z</time></trkpt>
<trkpt lat="53.1834788322" lon="-3.2776018461"><ele>351</ele><time>2011-12-18T12:15:38Z</time></trkpt>
<trkpt lat="53.1836083412" lon="-3.2775363286"><ele>354</ele><time>2011-12-18T12:16:07Z</time></trkpt>
<trkpt lat="53.1837236722" lon="-3.2774101575"><ele>356</ele><time>2011-12-18T12:16:23Z</time></trkpt>
<trkpt lat="53.1838578383" lon="-3.2773520152"><ele>357</ele><time>2011-12-18T12:16:38Z</time></trkpt>
<trkpt lat="53.1839873314" lon="-3.2772603353"><ele>359</ele><time>2011-12-18T12:16:53Z</time></trkpt>
<trkpt lat="53.1841246605" lon="-3.2772294998"><ele>360</ele><time>2011-12-18T12:17:07Z</time></trkpt>
<trkpt lat="53.1842305024" lon="-3.2773741722"><ele>364</ele><time>2011-12-18T12:17:30Z</time></trkpt>
<trkpt lat="53.1842926661" lon="-3.2775828362"><ele>368</ele><time>2011-12-18T12:17:56Z</time></trkpt>
<trkpt lat="53.1843505065" lon="-3.2777856509"><ele>373</ele><time>2011-12-18T12:18:32Z</time></trkpt>
<trkpt lat="53.1844065030" lon="-3.2779961586"><ele>379</ele><time>2011-12-18T12:19:06Z</time></trkpt>
<trkpt lat="53.1844781717" lon="-3.2781874975"><ele>385</ele><time>2011-12-18T12:19:40Z</time></trkpt>
<trkpt lat="53.1845581690" lon="-3.2783763250"><ele>390</ele><time>2011-12-18T12:20:16Z</time></trkpt>
<trkpt lat="53.1845988274" lon="-3.2785946528"><ele>397</ele><time>2011-12-18T12:20:48Z</time></trkpt>
<trkpt lat="53.1846036593" lon="-3.2788218180"><ele>405</ele><time>2011-12-18T12:21:19Z</time></trkpt>
<trkpt lat="53.1845839977" lon="-3.2790458361"><ele>411</ele><time>2011-12-18T12:21:51Z</time></trkpt>
<trkpt lat="53.1845799923" lon="-3.2792708397"><ele>420</ele><time>2011-12-18T12:22:27Z</time></trkpt>
<trkpt lat="53.1845808347" lon="-3.2795000076"><ele>431</ele><time>2011-12-18T12:23:19Z</time></trkpt>
<trkpt lat="53.1847198327" lon="-3.2795141538"><ele>439</ele><time>2011-12-18T12:28:50Z</time></trkpt>
<trkpt lat="53.1848526637" lon="-3.2795713425"><ele>440</ele><time>2011-12-18T12:29:13Z</time></trkpt>
<trkpt lat="53.1849908352" lon="-3.2796011607"><ele>441</ele><time>2011-12-18T12:29:36Z</time></trkpt>
<trkpt lat="53.1849974950" lon="-3.2798348427"><ele>441</ele><time>2011-12-18T12:29:59Z</time></trkpt>
<trkpt lat="53.1848958333" lon="-3.2799935023"><ele>441</ele><time>2011-12-18T12:30:23Z</time></trkpt>
<trkpt lat="53.1847709974" lon="-3.2800856590"><ele>443</ele><time>2011-12-18T12:30:44Z</time></trkpt>
<trkpt lat="53.1846558412" lon="-3.2802236557"><ele>444</ele><time>2011-12-18T12:31:01Z</time></trkpt>
<trkpt lat="53.1845523357" lon="-3.2803833326"><ele>446</ele><time>2011-12-18T12:31:21Z</time></trkpt>
<trkpt lat="53.1846546650" lon="-3.2802313487"><ele>454</ele><time>2011-12-18T12:34:38Z</time></trkpt>
<trkpt lat="53.1847731590" lon="-3.2801111539"><ele>454</ele><time>2011-12-18T12:34:56Z</time></trkpt>
<trkpt lat="53.1848965009" lon="-3.2799983342"><ele>454</ele><time>2011-12-18T12:35:06Z</time></trkpt>
<trkpt lat="53.1850059986" lon="-3.2798426628"><ele>450</ele><time>2011-12-18T12:35:20Z</time></trkpt>
<trkpt lat="53.1850848357" lon="-3.2796605110"><ele>448</ele><time>2011-12-18T12:35:31Z</time></trkpt>
<trkpt lat="53.1852129936" lon="-3.2795438449"><ele>447</ele><time>2011-12-18T12:35:42Z</time></trkpt>
<trkpt lat="53.1853431702" lon="-3.2794541677"><ele>445</ele><time>2011-12-18T12:35:53Z</time></trkpt>
<trkpt lat="53.1854643345" lon="-3.2793256760"><ele>442</ele><time>2011-12-18T12:36:15Z</time></trkpt>
<trkpt lat="53.1855886618" lon="-3.2791998227"><ele>433</ele><time>2011-12-18T12:37:28Z</time></trkpt>
<trkpt lat="53.1857161681" lon="-3.2791008313"><ele>431</ele><time>2011-12-18T12:37:39Z</time></trkpt>
<trkpt lat="53.1858404954" lon="-3.2789900144"><ele>429</ele><time>2011-12-18T12:37:57Z</time></trkpt>
<trkpt lat="53.1859486739" lon="-3.2788518270"><ele>427</ele><time>2011-12-18T12:38:09Z</time></trkpt>
<trkpt lat="53.1860628287" lon="-3.2787086805"><ele>425</ele><time>2011-12-18T12:38:20Z</time></trkpt>
<trkpt lat="53.1861823400" lon="-3.2785996755"><ele>423</ele><time>2011-12-18T12:38:30Z</time></trkpt>
<trkpt lat="53.1863016605" lon="-3.2784656525"><ele>423</ele><time>2011-12-18T12:38:40Z</time></trkpt>
<trkpt lat="53.1864240011" lon="-3.2783595085"><ele>421</ele><time>2011-12-18T12:38:50Z</time></trkpt>
<trkpt lat="53.1865574996" lon="-3.2782401721"><ele>421</ele><time>2011-12-18T12:39:00Z</time></trkpt>
<trkpt lat="53.1866458257" lon="-3.2780656815"><ele>420</ele><time>2011-12-18T12:39:11Z</time></trkpt>
<trkpt lat="53.1865521590" lon="-3.2778823217"><ele>419</ele><time>2011-12-18T12:39:25Z</time></trkpt>
<trkpt lat="53.1864345074" lon="-3.2777425130"><ele>418</ele><time>2011-12-18T12:39:36Z</time></trkpt>
<trkpt lat="53.1863311609" lon="-3.2775760015"><ele>416</ele><time>2011-12-18T12:39:46Z</time></trkpt>
<trkpt lat="53.1862153371" lon="-3.2774464925"><ele>413</ele><time>2011-12-18T12:40:09Z</time></trkpt>
<trkpt lat="53.1860980034" lon="-3.2773208300"><ele>412</ele><time>2011-12-18T12:40:20Z</time></trkpt>
<trkpt lat="53.1859790007" lon="-3.2771993319"><ele>410</ele><time>2011-12-18T12:40:30Z</time></trkpt>
<trkpt lat="53.1858116627" lon="-3.2771626790"><ele>408</ele><time>2011-12-18T12:40:40Z</time></trkpt>
<trkpt lat="53.1856681665" lon="-3.2771521568"><ele>406</ele><time>2011-12-18T12:40:52Z</time></trkpt>
<trkpt lat="53.1855333328" lon="-3.2771540006"><ele>404</ele><time>2011-12-18T12:41:03Z</time></trkpt>
<trkpt lat="53.1853885015" lon="-3.2771089872"><ele>403</ele><time>2011-12-18T12:41:14Z</time></trkpt>
<trkpt lat="53.1852501710" lon="-3.2771193186"><ele>401</ele><time>2011-12-18T12:41:24Z</time></trkpt>
<trkpt lat="53.1851040045" lon="-3.2771113396"><ele>400</ele><time>2011-12-18T12:41:35Z</time></trkpt>
<trkpt lat="53.1849631627" lon="-3.2770865122"><ele>398</ele><time>2011-12-18T12:41:46Z</time></trkpt>
<trkpt lat="53.1848289967" lon="-3.2770350138"><ele>396</ele><time>2011-12-18T12:41:57Z</time></trkpt>
<trkpt lat="53.1846933365" lon="-3.2769503276"><ele>395</ele><time>2011-12-18T12:42:09Z</time></trkpt>
<trkpt lat="53.1845461686" lon="-3.2769131660"><ele>394</ele><time>2011-12-18T12:42:23Z</time></trkpt>
<trkpt lat="53.1844061693" lon="-3.2769731522"><ele>393</ele><time>2011-12-18T12:42:34Z</time></trkpt>
<trkpt lat="53.1842759927" lon="-3.2770471573"><ele>392</ele><time>2011-12-18T12:42:46Z</time></trkpt>
<trkpt lat="53.1841383298" lon="-3.2771725019"><ele>390</ele><time>2011-12-18T12:42:56Z</time></trkpt>
<trkpt lat="53.1840095043" lon="-3.2772535006"><ele>389</ele><time>2011-12-18T12:43:07Z</time></trkpt>
<trkpt lat="53.1838768323" lon="-3.2773198446"><ele>388</ele><time>2011-12-18T12:43:17Z</time></trkpt>
<trkpt lat="53.1837360064" lon="-3.2773691813"><ele>387</ele><time>2011-12-18T12:43:29Z</time></trkpt>
<trkpt lat="53.1836138407" lon="-3.2774903297"><ele>385</ele><time>2011-12-18T12:43:42Z</time></trkpt>
<trkpt lat="53.1834781647" lon="-3.2775283178"><ele>384</ele><time>2011-12-18T12:43:55Z</time></trkpt>
<trkpt lat="53.1833390077" lon="-3.2775879860"><ele>382</ele><time>2011-12-18T12:44:07Z</time></trkpt>
<trkpt lat="53.1831963380" lon="-3.2775911649"><ele>381</ele><time>2011-12-18T12:44:17Z</time></trkpt>
<trkpt lat="53.1830523332" lon="-3.2775836627"><ele>379</ele><time>2011-12-18T12:44:30Z</time></trkpt>
<trkpt lat="53.1829103311" lon="-3.2775974909"><ele>378</ele><time>2011-12-18T12:44:40Z</time></trkpt>
<trkpt lat="53.1827679952" lon="-3.2775961558"><ele>376</ele><time>2011-12-18T12:44:51Z</time></trkpt>
<trkpt lat="53.1826223373" lon="-3.2775855064"><ele>375</ele><time>2011-12-18T12:45:01Z</time></trkpt>
<trkpt lat="53.1824714979" lon="-3.2775933266"><ele>373</ele><time>2011-12-18T12:45:11Z</time></trkpt>
<trkpt lat="53.1824896653" lon="-3.2773623466"><ele>366</ele><time>2011-12-18T12:45:34Z</time></trkpt>
<trkpt lat="53.1825780074" lon="-3.2771826744"><ele>361</ele><time>2011-12-18T12:46:12Z</time></trkpt>
<trkpt lat="53.1826759974" lon="-3.2769885063"><ele>359</ele><time>2011-12-18T12:46:23Z</time></trkpt>
<trkpt lat="53.1827733358" lon="-3.2767926534"><ele>357</ele><time>2011-12-18T12:46:33Z</time></trkpt>
<trkpt lat="53.1828888257" lon="-3.2766251564"><ele>355</ele><time>2011-12-18T12:46:43Z</time></trkpt>
<trkpt lat="53.1829795043" lon="-3.2764435132"><ele>353</ele><time>2011-12-18T12:46:53Z</time></trkpt>
<trkpt lat="53.1831059933" lon="-3.2763083458"><ele>352</ele><time>2011-12-18T12:47:03Z</time></trkpt>
<trkpt lat="53.1832210064" lon="-3.2761381785"><ele>351</ele><time>2011-12-18T12:47:13Z</time></trkpt>
<trkpt lat="53.1833264987" lon="-3.2759723345"><ele>350</ele><time>2011-12-18T12:47:24Z</time></trkpt>
<trkpt lat="53.1834510008" lon="-3.2758411725"><ele>345</ele><time>2011-12-18T12:47:59Z</time></trkpt>
<trkpt lat="53.1834553401" lon="-3.2756088257"><ele>344</ele><time>2011-12-18T12:48:11Z</time></trkpt>
<trkpt lat="53.1834925016" lon="-3.2753749847"><ele>342</ele><time>2011-12-18T12:48:23Z</time></trkpt>
<trkpt lat="53.1834858259" lon="-3.2751371702"><ele>342</ele><time>2011-12-18T12:48:34Z</time></trkpt>
<trkpt lat="53.1834893386" lon="-3.2749083201"><ele>342</ele><time>2011-12-18T12:48:45Z</time></trkpt>
<trkpt lat="53.1835151672" lon="-3.2746768316"><ele>341</ele><time>2011-12-18T12:49:00Z</time></trkpt>
<trkpt lat="53.1835181713" lon="-3.2744411786"><ele>341</ele><time>2011-12-18T12:49:11Z</time></trkpt>
<trkpt lat="53.1835286617" lon="-3.2742083232"><ele>340</ele><time>2011-12-18T12:49:23Z</time></trkpt>
<trkpt lat="53.1835161686" lon="-3.2739683469"><ele>341</ele><time>2011-12-18T12:49:35Z</time></trkpt>
<trkpt lat="53.1835056623" lon="-3.2737278303"><ele>341</ele><time>2011-12-18T12:49:46Z</time></trkpt>
<trkpt lat="53.1835551739" lon="-3.2735073407"><ele>341</ele><time>2011-12-18T12:49:57Z</time></trkpt>
<trkpt lat="53.1836186727" lon="-3.2732934952"><ele>341</ele><time>2011-12-18T12:50:09Z</time></trkpt>
<trkpt lat="53.1836844921" lon="-3.2730956713"><ele>341</ele><time>2011-12-18T12:50:21Z</time></trkpt>
<trkpt lat="53.1838021596" lon="-3.2729488373"><ele>341</ele><time>2011-12-18T12:50:33Z</time></trkpt>
<trkpt lat="53.1838980039" lon="-3.2727759997"><ele>341</ele><time>2011-12-18T12:50:45Z</time></trkpt>
<trkpt lat="53.1839786688" lon="-3.2725824992"><ele>341</ele><time>2011-12-18T12:50:57Z</time></trkpt>
<trkpt lat="53.1840604941" lon="-3.2723855019"><ele>341</ele><time>2011-12-18T12:51:09Z</time></trkpt>
<trkpt lat="53.1841576735" lon="-3.2722236633"><ele>341</ele><time>2011-12-18T12:51:20Z</time></trkpt>
<trkpt lat="53.1842459997" lon="-3.2720338186"><ele>342</ele><time>2011-12-18T12:51:32Z</time></trkpt>
<trkpt lat="53.1843371709" lon="-3.2718493462"><ele>342</ele><time>2011-12-18T12:51:44Z</time></trkpt>
<trkpt lat="53.1844313304" lon="-3.2716851552"><ele>342</ele><time>2011-12-18T12:51:56Z</time></trkpt>
<trkpt lat="53.1845273336" lon="-3.2715119998"><ele>342</ele><time>2011-12-18T12:52:08Z</time></trkpt>
<trkpt lat="53.1846165021" lon="-3.2713364919"><ele>343</ele><time>2011-12-18T12:52:20Z</time></trkpt>
<trkpt lat="53.1846738338" lon="-3.2711276690"><ele>343</ele><time>2011-12-18T12:52:32Z</time></trkpt>
<trkpt lat="53.1847500006" lon="-3.2709341685"><ele>343</ele><time>2011-12-18T12:52:44Z</time></trkpt>
<trkpt lat="53.1848179976" lon="-3.2707328478"><ele>343</ele><time>2011-12-18T12:52:56Z</time></trkpt>
<trkpt lat="53.1848831654" lon="-3.2705238342"><ele>343</ele><time>2011-12-18T12:53:08Z</time></trkpt>
<trkpt lat="53.1849326611" lon="-3.2703136762"><ele>344</ele><time>2011-12-18T12:53:20Z</time></trkpt>
<trkpt lat="53.1849689960" lon="-3.2700940132"><ele>344</ele><time>2011-12-18T12:53:33Z</time></trkpt>
<trkpt lat="53.1850234985" lon="-3.2698868434"><ele>345</ele><time>2011-12-18T12:53:46Z</time></trkpt>
<trkpt lat="53.1850619952" lon="-3.2696698189"><ele>345</ele><time>2011-12-18T12:53:58Z</time></trkpt>
<trkpt lat="53.1850986640" lon="-3.2694531759"><ele>345</ele><time>2011-12-18T12:54:10Z</time></trkpt>
<trkpt lat="53.1851429939" lon="-3.2692323367"><ele>346</ele><time>2011-12-18T12:54:23Z</time></trkpt>
<trkpt lat="53.1851795038" lon="-3.2690050125"><ele>347</ele><time>2011-12-18T12:54:36Z</time></trkpt>
<trkpt lat="53.1852256616" lon="-3.2687884967"><ele>347</ele><time>2011-12-18T12:54:48Z</time></trkpt>
<trkpt lat="53.1852638404" lon="-3.2685645103"><ele>348</ele><time>2011-12-18T12:55:03Z</time></trkpt>
<trkpt lat="53.1853061676" lon="-3.2683321635"><ele>348</ele><time>2011-12-18T12:55:18Z</time></trkpt>
<trkpt lat="53.1853508313" lon="-3.2681091626"><ele>349</ele><time>2011-12-18T12:55:32Z</time></trkpt>
<trkpt lat="53.1854070028" lon="-3.2679043452"><ele>350</ele><time>2011-12-18T12:55:45Z</time></trkpt>
<trkpt lat="53.1854608377" lon="-3.2676841736"><ele>350</ele><time>2011-12-18T12:55:58Z</time></trkpt>
<trkpt lat="53.1855221589" lon="-3.2674688339"><ele>351</ele><time>2011-12-18T12:56:12Z</time></trkpt>
<trkpt lat="53.1855766614" lon="-3.2672604879"><ele>352</ele><time>2011-12-18T12:56:25Z</time></trkpt>
<trkpt lat="53.1856283347" lon="-3.2670434952"><ele>353</ele><time>2011-12-18T12:56:38Z</time></trkpt>
<trkpt lat="53.1856696606" lon="-3.2668256760"><ele>353</ele><time>2011-12-18T12:56:51Z</time></trkpt>
<trkpt lat="53.1857253393" lon="-3.2666113377"><ele>354</ele><time>2011-12-18T12:57:04Z</time></trkpt>
<trkpt lat="53.1857914925" lon="-3.2664078395"><ele>354</ele><time>2011-12-18T12:57:16Z</time></trkpt>
<trkpt lat="53.1858479977" lon="-3.2662036737"><ele>355</ele><time>2011-12-18T12:57:28Z</time></trkpt>
<trkpt lat="53.1859010061" lon="-3.2659913381"><ele>356</ele><time>2011-12-18T12:57:40Z</time></trkpt>
<trkpt lat="53.1859586716" lon="-3.2657721678"><ele>356</ele><time>2011-12-18T12:57:52Z</time></trkpt>
<trkpt lat="53.1860111713" lon="-3.2655598323"><ele>356</ele><time>2011-12-18T12:58:03Z</time></trkpt>
<trkpt lat="53.1860468388" lon="-3.2653318405"><ele>357</ele><time>2011-12-18T12:58:14Z</time></trkpt>
<trkpt lat="53.1860943317" lon="-3.2651150068"><ele>356</ele><time>2011-12-18T12:58:26Z</time></trkpt>
<trkpt lat="53.1861491680" lon="-3.2648955027"><ele>356</ele><time>2011-12-18T12:58:37Z</time></trkpt>
<trkpt lat="53.1862156709" lon="-3.2646766663"><ele>356</ele><time>2011-12-18T12:58:48Z</time></trkpt>
<trkpt lat="53.1862453302" lon="-3.2644558271"><ele>356</ele><time>2011-12-18T12:59:00Z</time></trkpt>
<trkpt lat="53.1863064925" lon="-3.2642478307"><ele>355</ele><time>2011-12-18T12:59:12Z</time></trkpt>
<trkpt lat="53.1863618374" lon="-3.2640311718"><ele>355</ele><time>2011-12-18T12:59:24Z</time></trkpt>
<trkpt lat="53.1863696734" lon="-3.2638023376"><ele>354</ele><time>2011-12-18T12:59:52Z</time></trkpt>
<trkpt lat="53.1863961697" lon="-3.2635778268"><ele>354</ele><time>2011-12-18T13:00:02Z</time></trkpt>
<trkpt lat="53.1863663356" lon="-3.2633516630"><ele>353</ele><time>2011-12-18T13:00:12Z</time></trkpt>
<trkpt lat="53.1863324960" lon="-3.2631168365"><ele>352</ele><time>2011-12-18T13:00:23Z</time></trkpt>
<trkpt lat="53.1862963359" lon="-3.2628794988"><ele>351</ele><time>2011-12-18T13:00:33Z</time></trkpt>
<trkpt lat="53.1862624963" lon="-3.2626588345"><ele>351</ele><time>2011-12-18T13:00:43Z</time></trkpt>
<trkpt lat="53.1862449964" lon="-3.2624318282"><ele>350</ele><time>2011-12-18T13:00:56Z</time></trkpt>
<trkpt lat="53.1862146695" lon="-3.2621956666"><ele>348</ele><time>2011-12-18T13:01:07Z</time></trkpt>
<trkpt lat="53.1861701647" lon="-3.2619695028"><ele>347</ele><time>2011-12-18T13:01:18Z</time></trkpt>
<trkpt lat="53.1861608346" lon="-3.2617288272"><ele>346</ele><time>2011-12-18T13:01:29Z</time></trkpt>
<trkpt lat="53.1861385028" lon="-3.2615029971"><ele>345</ele><time>2011-12-18T13:01:40Z</time></trkpt>
<trkpt lat="53.1861163298" lon="-3.2612751643"><ele>344</ele><time>2011-12-18T13:01:51Z</time></trkpt>
<trkpt lat="53.1860938390" lon="-3.2610348384"><ele>343</ele><time>2011-12-18T13:02:03Z</time></trkpt>
<trkpt lat="53.1860731602" lon="-3.2608116627"><ele>342</ele><time>2011-12-18T13:02:13Z</time></trkpt>
<trkpt lat="53.1860381603" lon="-3.2605775038"><ele>341</ele><time>2011-12-18T13:02:25Z</time></trkpt>
<trkpt lat="53.1860056718" lon="-3.2603473345"><ele>340</ele><time>2011-12-18T13:02:36Z</time></trkpt>
<trkpt lat="53.1859943390" lon="-3.2601116657"><ele>339</ele><time>2011-12-18T13:02:48Z</time></trkpt>
<trkpt lat="53.1859808286" lon="-3.2598729928"><ele>337</ele><time>2011-12-18T13:03:01Z</time></trkpt>
<trkpt lat="53.1859396617" lon="-3.2596519947"><ele>336</ele><time>2011-12-18T13:03:13Z</time></trkpt>
<trkpt lat="53.1858945052" lon="-3.2594140053"><ele>335</ele><time>2011-12-18T13:03:24Z</time></trkpt>
<trkpt lat="53.1858873367" lon="-3.2591808319"><ele>334</ele><time>2011-12-18T13:03:36Z</time></trkpt>
<trkpt lat="53.1858449936" lon="-3.2589616617"><ele>332</ele><time>2011-12-18T13:03:52Z</time></trkpt>
<trkpt lat="53.1858033339" lon="-3.2587366740"><ele>331</ele><time>2011-12-18T13:04:06Z</time></trkpt>
<trkpt lat="53.1857865016" lon="-3.2584958394"><ele>330</ele><time>2011-12-18T13:04:19Z</time></trkpt>
<trkpt lat="53.1857656638" lon="-3.2582719962"><ele>329</ele><time>2011-12-18T13:04:32Z</time></trkpt>
<trkpt lat="53.1857273261" lon="-3.2580436707"><ele>329</ele><time>2011-12-18T13:04:45Z</time></trkpt>
<trkpt lat="53.1857063293" lon="-3.2578145027"><ele>328</ele><time>2011-12-18T13:04:57Z</time></trkpt>
<trkpt lat="53.1856763363" lon="-3.2575921694"><ele>328</ele><time>2011-12-18T13:05:11Z</time></trkpt>
<trkpt lat="53.1856383324" lon="-3.2573725065"><ele>327</ele><time>2011-12-18T13:05:24Z</time></trkpt>
<trkpt lat="53.1856156667" lon="-3.2571395079"><ele>327</ele><time>2011-12-18T13:05:39Z</time></trkpt>
<trkpt lat="53.1855919997" lon="-3.2569084962"><ele>327</ele><time>2011-12-18T13:05:54Z</time></trkpt>
<trkpt lat="53.1855586688" lon="-3.2566856702"><ele>327</ele><time>2011-12-18T13:06:06Z</time></trkpt>
<trkpt lat="53.1854963303" lon="-3.2564758301"><ele>327</ele><time>2011-12-18T13:06:20Z</time></trkpt>
<trkpt lat="53.1854259968" lon="-3.2562718391"><ele>328</ele><time>2011-12-18T13:07:49Z</time></trkpt>
<trkpt lat="53.1853303274" lon="-3.2561096668"><ele>328</ele><time>2011-12-18T13:08:03Z</time></trkpt>
<trkpt lat="53.1852324963" lon="-3.2559470018"><ele>329</ele><time>2011-12-18T13:08:19Z</time></trkpt>
<trkpt lat="53.1851205031" lon="-3.2558066686"><ele>329</ele><time>2011-12-18T13:08:32Z</time></trkpt>
<trkpt lat="53.1850094954" lon="-3.2556648254"><ele>329</ele><time>2011-12-18T13:08:45Z</time></trkpt>
<trkpt lat="53.1848956744" lon="-3.2555128256"><ele>330</ele><time>2011-12-18T13:08:58Z</time></trkpt>
<trkpt lat="53.1847853343" lon="-3.2553614934"><ele>330</ele><time>2011-12-18T13:09:11Z</time></trkpt>
<trkpt lat="53.1846775055" lon="-3.2552083333"><ele>331</ele><time>2011-12-18T13:09:23Z</time></trkpt>
<trkpt lat="53.1845760028" lon="-3.2550574938"><ele>331</ele><time>2011-12-18T13:09:36Z</time></trkpt>
<trkpt lat="53.1844696681" lon="-3.2549138387"><ele>331</ele><time>2011-12-18T13:09:47Z</time></trkpt>
<trkpt lat="53.1843485037" lon="-3.2547695001"><ele>331</ele><time>2011-12-18T13:10:00Z</time></trkpt>
<trkpt lat="53.1842311700" lon="-3.2546545029"><ele>331</ele><time>2011-12-18T13:10:12Z</time></trkpt>
<trkpt lat="53.1841340065" lon="-3.2544963360"><ele>332</ele><time>2011-12-18T13:10:23Z</time></trkpt>
<trkpt lat="53.1840205034" lon="-3.2543583393"><ele>332</ele><time>2011-12-18T13:10:34Z</time></trkpt>
<trkpt lat="53.1838913282" lon="-3.2542406718"><ele>332</ele><time>2011-12-18T13:10:46Z</time></trkpt>
<trkpt lat="53.1837753296" lon="-3.2541185061"><ele>332</ele><time>2011-12-18T13:10:57Z</time></trkpt>
<trkpt lat="53.1836489995" lon="-3.2540151596"><ele>332</ele><time>2011-12-18T13:11:08Z</time></trkpt>
<trkpt lat="53.1835179965" lon="-3.2539391677"><ele>332</ele><time>2011-12-18T13:11:19Z</time></trkpt>
<trkpt lat="53.1833728313" lon="-3.2538764954"><ele>331</ele><time>2011-12-18T13:11:30Z</time></trkpt>
<trkpt lat="53.1832373301" lon="-3.2538633347"><ele>331</ele><time>2011-12-18T13:11:40Z</time></trkpt>
<trkpt lat="53.1830911636" lon="-3.2539000034"><ele>331</ele><time>2011-12-18T13:11:50Z</time></trkpt>
<trkpt lat="53.1829568386" lon="-3.2539498329"><ele>330</ele><time>2011-12-18T13:12:01Z</time></trkpt>
<trkpt lat="53.1828233401" lon="-3.2540216605"><ele>330</ele><time>2011-12-18T13:12:13Z</time></trkpt>
<trkpt lat="53.1826898257" lon="-3.2540806611"><ele>329</ele><time>2011-12-18T13:12:24Z</time></trkpt>
<trkpt lat="53.1825546741" lon="-3.2541000048"><ele>329</ele><time>2011-12-18T13:12:35Z</time></trkpt>
<trkpt lat="53.1824088256" lon="-3.2540923278"><ele>329</ele><time>2011-12-18T13:12:46Z</time></trkpt>
<trkpt lat="53.1822701613" lon="-3.2540298303"><ele>328</ele><time>2011-12-18T13:12:57Z</time></trkpt>
<trkpt lat="53.1821308295" lon="-3.2539610068"><ele>328</ele><time>2011-12-18T13:13:09Z</time></trkpt>
<trkpt lat="53.1820146720" lon="-3.2538440069"><ele>327</ele><time>2011-12-18T13:13:21Z</time></trkpt>
<trkpt lat="53.1819331646" lon="-3.2536424955"><ele>327</ele><time>2011-12-18T13:13:37Z</time></trkpt>
<trkpt lat="53.1818685055" lon="-3.2534453392"><ele>327</ele><time>2011-12-18T13:13:47Z</time></trkpt>
<trkpt lat="53.1817849954" lon="-3.2532528400"><ele>327</ele><time>2011-12-18T13:13:58Z</time></trkpt>
<trkpt lat="53.1816741625" lon="-3.2531041622"><ele>326</ele><time>2011-12-18T13:14:08Z</time></trkpt>
<trkpt lat="53.1815681616" lon="-3.2529581706"><ele>325</ele><time>2011-12-18T13:14:21Z</time></trkpt>
<trkpt lat="53.1814304988" lon="-3.2528583368"><ele>324</ele><time>2011-12-18T13:14:31Z</time></trkpt>
<trkpt lat="53.1813128312" lon="-3.2527401606"><ele>324</ele><time>2011-12-18T13:14:41Z</time></trkpt>
<trkpt lat="53.1811743259" lon="-3.2526195049"><ele>323</ele><time>2011-12-18T13:14:51Z</time></trkpt>
<trkpt lat="53.1810280005" lon="-3.2524805069"><ele>322</ele><time>2011-12-18T13:15:01Z</time></trkpt>
<trkpt lat="53.1808921655" lon="-3.2523831685"><ele>321</ele><time>2011-12-18T13:15:11Z</time></trkpt>
<trkpt lat="53.1807523410" lon="-3.2524134954"><ele>320</ele><time>2011-12-18T13:15:24Z</time></trkpt>
<trkpt lat="53.1806169987" lon="-3.2524351597"><ele>320</ele><time>2011-12-18T13:15:38Z</time></trkpt>
<trkpt lat="53.1804708322" lon="-3.2524516741"><ele>319</ele><time>2011-12-18T13:15:48Z</time></trkpt>
<trkpt lat="53.1803225040" lon="-3.2524814924"><ele>318</ele><time>2011-12-18T13:15:58Z</time></trkpt>
<trkpt lat="53.1801808357" lon="-3.2525190036"><ele>318</ele><time>2011-12-18T13:16:10Z</time></trkpt>
<trkpt lat="53.1800350030" lon="-3.2524718285"><ele>317</ele><time>2011-12-18T13:16:23Z</time></trkpt>
<trkpt lat="53.1799033324" lon="-3.2523991744"><ele>317</ele><time>2011-12-18T13:16:34Z</time></trkpt>
<trkpt lat="53.1797728380" lon="-3.2522948265"><ele>317</ele><time>2011-12-18T13:16:46Z</time></trkpt>
<trkpt lat="53.1796636740" lon="-3.2521596591"><ele>316</ele><time>2011-12-18T13:16:57Z</time></trkpt>
<trkpt lat="53.1795653343" lon="-3.2519848347"><ele>316</ele><time>2011-12-18T13:17:09Z</time></trkpt>
<trkpt lat="53.1794676622" lon="-3.2518081665"><ele>316</ele><time>2011-12-18T13:17:20Z</time></trkpt>
<trkpt lat="53.1793859959" lon="-3.2516141733"><ele>315</ele><time>2011-12-18T13:17:30Z</time></trkpt>
<trkpt lat="53.1793016593" lon="-3.2514109929"><ele>314</ele><time>2011-12-18T13:17:40Z</time></trkpt>
<trkpt lat="53.1792209943" lon="-3.2512108326"><ele>313</ele><time>2011-12-18T13:17:51Z</time></trkpt>
<trkpt lat="53.1791415056" lon="-3.2510111650"><ele>312</ele><time>2011-12-18T13:18:01Z</time></trkpt>
<trkpt lat="53.1790651639" lon="-3.2508169969"><ele>311</ele><time>2011-12-18T13:18:11Z</time></trkpt>
<trkpt lat="53.1789808273" lon="-3.2506278356"><ele>310</ele><time>2011-12-18T13:18:21Z</time></trkpt>
<trkpt lat="53.1789069970" lon="-3.2504395008"><ele>309</ele><time>2011-12-18T13:18:32Z</time></trkpt>
<trkpt lat="53.1788538297" lon="-3.2502246698"><ele>308</ele><time>2011-12-18T13:18:43Z</time></trkpt>
<trkpt lat="53.1787733396" lon="-3.2500415007"><ele>307</ele><time>2011-12-18T13:18:53Z</time></trkpt>
<trkpt lat="53.1786914984" lon="-3.2498620033"><ele>305</ele><time>2011-12-18T13:19:03Z</time></trkpt>
<trkpt lat="53.1786269983" lon="-3.2496605078"><ele>304</ele><time>2011-12-18T13:19:17Z</time></trkpt>
<trkpt lat="53.1785244942" lon="-3.2494606654"><ele>303</ele><time>2011-12-18T13:19:27Z</time></trkpt>
<trkpt lat="53.1784358342" lon="-3.2492741744"><ele>303</ele><time>2011-12-18T13:19:37Z</time></trkpt>
<trkpt lat="53.1783569972" lon="-3.2490833282"><ele>302</ele><time>2011-12-18T13:19:47Z</time></trkpt>
<trkpt lat="53.1782761733" lon="-3.2488755067"><ele>301</ele><time>2011-12-18T13:19:57Z</time></trkpt>
<trkpt lat="53.1781901677" lon="-3.2486543338"><ele>300</ele><time>2011-12-18T13:20:07Z</time></trkpt>
<trkpt lat="53.1781191667" lon="-3.2484608332"><ele>299</ele><time>2011-12-18T13:20:19Z</time></trkpt>
<trkpt lat="53.1780320009" lon="-3.2482720057"><ele>298</ele><time>2011-12-18T13:20:29Z</time></trkpt>
<trkpt lat="53.1779290040" lon="-3.2480811596"><ele>296</ele><time>2011-12-18T13:20:39Z</time></trkpt>
<trkpt lat="53.1778501670" lon="-3.2478695075"><ele>295</ele><time>2011-12-18T13:20:49Z</time></trkpt>
<trkpt lat="53.1777770042" lon="-3.2476693312"><ele>294</ele><time>2011-12-18T13:21:00Z</time></trkpt>
<trkpt lat="53.1776953379" lon="-3.2474821726"><ele>293</ele><time>2011-12-18T13:21:10Z</time></trkpt>
<trkpt lat="53.1776068370" lon="-3.2472946644"><ele>292</ele><time>2011-12-18T13:21:21Z</time></trkpt>
<trkpt lat="53.1775396665" lon="-3.2470806599"><ele>292</ele><time>2011-12-18T13:21:32Z</time></trkpt>
<trkpt lat="53.1773959955" lon="-3.2469730059"><ele>291</ele><time>2011-12-18T13:21:42Z</time></trkpt>
<trkpt lat="53.1773574988" lon="-3.2467370033"><ele>291</ele><time>2011-12-18T13:21:53Z</time></trkpt>
<trkpt lat="53.1773928324" lon="-3.2464101632"><ele>290</ele><time>2011-12-18T13:22:03Z</time></trkpt>
<trkpt lat="53.1773786704" lon="-3.2461496671"><ele>289</ele><time>2011-12-18T13:22:13Z</time></trkpt>
<trkpt lat="53.1773916721" lon="-3.2459035079"><ele>289</ele><time>2011-12-18T13:22:23Z</time></trkpt>
<trkpt lat="53.1774031639" lon="-3.2456731637"><ele>288</ele><time>2011-12-18T13:22:33Z</time></trkpt>
<trkpt lat="53.1774189949" lon="-3.2454358260"><ele>288</ele><time>2011-12-18T13:22:43Z</time></trkpt>
<trkpt lat="53.1774338404" lon="-3.2452034950"><ele>288</ele><time>2011-12-18T13:22:54Z</time></trkpt>
<trkpt lat="53.1774648348" lon="-3.2449710051"><ele>287</ele><time>2011-12-18T13:23:05Z</time></trkpt>
<trkpt lat="53.1774456660" lon="-3.2447338263"><ele>286</ele><time>2011-12-18T13:23:25Z</time></trkpt>
<trkpt lat="53.1774514993" lon="-3.2445083300"><ele>286</ele><time>2011-12-18T13:23:36Z</time></trkpt>
<trkpt lat="53.1774616718" lon="-3.2442746639"><ele>286</ele><time>2011-12-18T13:23:48Z</time></trkpt>
<trkpt lat="53.1774963379" lon="-3.2440416654"><ele>286</ele><time>2011-12-18T13:23:58Z</time></trkpt>
<trkpt lat="53.1775086721" lon="-3.2437974930"><ele>285</ele><time>2011-12-18T13:24:08Z</time></trkpt>
<trkpt lat="53.1775306702" lon="-3.2435591698"><ele>285</ele><time>2011-12-18T13:24:18Z</time></trkpt>
<trkpt lat="53.1775368373" lon="-3.2433138371"><ele>284</ele><time>2011-12-18T13:24:29Z</time></trkpt>
<trkpt lat="53.1775668303" lon="-3.2430486679"><ele>284</ele><time>2011-12-18T13:24:39Z</time></trkpt>
<trkpt lat="53.1775656700" lon="-3.2428141594"><ele>283</ele><time>2011-12-18T13:24:49Z</time></trkpt>
<trkpt lat="53.1775856654" lon="-3.2425873280"><ele>283</ele><time>2011-12-18T13:24:59Z</time></trkpt>
<trkpt lat="53.1776058356" lon="-3.2423630079"><ele>282</ele><time>2011-12-18T13:25:09Z</time></trkpt>
<trkpt lat="53.1776165009" lon="-3.2421216647"><ele>282</ele><time>2011-12-18T13:25:19Z</time></trkpt>
<trkpt lat="53.1776288350" lon="-3.2418686708"><ele>281</ele><time>2011-12-18T13:25:29Z</time></trkpt>
<trkpt lat="53.1776416620" lon="-3.2416408380"><ele>281</ele><time>2011-12-18T13:25:39Z</time></trkpt>
<trkpt lat="53.1776246707" lon="-3.2414096673"><ele>280</ele><time>2011-12-18T13:25:49Z</time></trkpt>
<trkpt lat="53.1775564988" lon="-3.2412001610"><ele>279</ele><time>2011-12-18T13:25:59Z</time></trkpt>
<trkpt lat="53.1774675051" lon="-3.2410234928"><ele>278</ele><time>2011-12-18T13:26:09Z</time></trkpt>
<trkpt lat="53.1773914973" lon="-3.2408346653"><ele>277</ele><time>2011-12-18T13:26:19Z</time></trkpt>
<trkpt lat="53.1773336728" lon="-3.2406276703"><ele>276</ele><time>2011-12-18T13:26:30Z</time></trkpt>
<trkpt lat="53.1773058256" lon="-3.2403986613"><ele>275</ele><time>2011-12-18T13:26:41Z</time></trkpt>
<trkpt lat="53.1773866653" lon="-3.2401941617"><ele>274</ele><time>2011-12-18T13:26:52Z</time></trkpt>
<trkpt lat="53.1774943352" lon="-3.2400313377"><ele>274</ele><time>2011-12-18T13:27:02Z</time></trkpt>
<trkpt lat="53.1776020050" lon="-3.2398884932"><ele>273</ele><time>2011-12-18T13:27:13Z</time></trkpt>
<trkpt lat="53.1776439985" lon="-3.2396738370"><ele>272</ele><time>2011-12-18T13:27:25Z</time></trkpt>
<trkpt lat="53.1776274999" lon="-3.2394243399"><ele>271</ele><time>2011-12-18T13:27:35Z</time></trkpt>
<trkpt lat="53.1775853316" lon="-3.2391575019"><ele>270</ele><time>2011-12-18T13:27:45Z</time></trkpt>
<trkpt lat="53.1775979996" lon="-3.2389304956"><ele>269</ele><time>2011-12-18T13:27:55Z</time></trkpt>
<trkpt lat="53.1776863257" lon="-3.2387466590"><ele>268</ele><time>2011-12-18T13:28:05Z</time></trkpt>
<trkpt lat="53.1777616660" lon="-3.2385538260"><ele>267</ele><time>2011-12-18T13:28:16Z</time></trkpt>
<trkpt lat="53.1778433323" lon="-3.2383663336"><ele>265</ele><time>2011-12-18T13:28:26Z</time></trkpt>
<trkpt lat="53.1779180050" lon="-3.2381724993"><ele>264</ele><time>2011-12-18T13:28:37Z</time></trkpt>
<trkpt lat="53.1780283292" lon="-3.2379793326"><ele>262</ele><time>2011-12-18T13:28:47Z</time></trkpt>
<trkpt lat="53.1781248411" lon="-3.2378113270"><ele>261</ele><time>2011-12-18T13:28:58Z</time></trkpt>
<trkpt lat="53.1782129924" lon="-3.2376379967"><ele>260</ele><time>2011-12-18T13:29:08Z</time></trkpt>
<trkpt lat="53.1781998316" lon="-3.2374129931"><ele>258</ele><time>2011-12-18T13:29:25Z</time></trkpt>
<trkpt lat="53.1780676683" lon="-3.2373076598"><ele>257</ele><time>2011-12-18T13:29:37Z</time></trkpt>
<trkpt lat="53.1779151599" lon="-3.2372196674"><ele>254</ele><time>2011-12-18T13:29:47Z</time></trkpt>
<trkpt lat="53.1777918339" lon="-3.2371243318"><ele>253</ele><time>2011-12-18T13:29:58Z</time></trkpt>
<trkpt lat="53.1776776632" lon="-3.2369909922"><ele>252</ele><time>2011-12-18T13:30:12Z</time></trkpt>
<trkpt lat="53.1775788307" lon="-3.2368141651"><ele>250</ele><time>2011-12-18T13:30:22Z</time></trkpt>
<trkpt lat="53.1775495052" lon="-3.2365803401"><ele>250</ele><time>2011-12-18T13:30:34Z</time></trkpt>
<trkpt lat="53.1774938265" lon="-3.2363608360"><ele>249</ele><time>2011-12-18T13:30:46Z</time></trkpt>
<trkpt lat="53.1774311701" lon="-3.2361399968"><ele>248</ele><time>2011-12-18T13:30:57Z</time></trkpt>
<trkpt lat="53.1773993333" lon="-3.2359128316"><ele>248</ele><time>2011-12-18T13:31:09Z</time></trkpt>
<trkpt lat="53.1774034977" lon="-3.2356294950"><ele>247</ele><time>2011-12-18T13:31:19Z</time></trkpt>
<trkpt lat="53.1773873329" lon="-3.2353919983"><ele>246</ele><time>2011-12-18T13:31:30Z</time></trkpt>
<trkpt lat="53.1773786704" lon="-3.2351600011"><ele>245</ele><time>2011-12-18T13:31:40Z</time></trkpt>
<trkpt lat="53.1774044991" lon="-3.2349095027"><ele>244</ele><time>2011-12-18T13:31:50Z</time></trkpt>
<trkpt lat="53.1774305026" lon="-3.2346708298"><ele>243</ele><time>2011-12-18T13:32:01Z</time></trkpt>
<trkpt lat="53.1774078369" lon="-3.2344370047"><ele>242</ele><time>2011-12-18T13:32:12Z</time></trkpt>
<trkpt lat="53.1773914973" lon="-3.2342081706"><ele>241</ele><time>2011-12-18T13:32:23Z</time></trkpt>
<trkpt lat="53.1774405003" lon="-3.2339591662"><ele>240</ele><time>2011-12-18T13:32:33Z</time></trkpt>
<trkpt lat="53.1775096734" lon="-3.2337431590"><ele>237</ele><time>2011-12-18T13:32:44Z</time></trkpt>
</trkseg>
</trk>
</gpx>